DFALK KICT-CYXU
Flight info
| Callsign | DFALK |
|---|---|
| Flight time | 4h 2m |
| Altitude | 7000 |
| Route | ROKNE DCT DRIVL DCT MAGOO DCT DARCY DCT BOOTT |
| Aircraft | C208/L-SDFGR/C |
Departure
| Time | 2026-04-27 08:47 |
|---|---|
| Airport | Wichita Dwight D. Eisenhower National Airport (KICT) |
Arrival
| Time | 2026-04-27 12:50 |
|---|---|
| Airport | London International Airport (CYXU) |
| Time | Latitude | Longitude | Altitude | Speed | Heading |
|---|---|---|---|---|---|
| 2026-04-27 08:33 | 37.65171 | -97.42691 | 1326 ft | 0 kts | 357° |
| 2026-04-27 08:44 | 37.65179 | -97.42691 | 1326 ft | 7 kts | 8° |
| 2026-04-27 08:44 | 37.65180 | -97.42660 | 1326 ft | 9 kts | 158° |
| 2026-04-27 08:44 | 37.65105 | -97.42696 | 1326 ft | 12 kts | 214° |
| 2026-04-27 08:45 | 37.65050 | -97.42825 | 1326 ft | 16 kts | 256° |
| 2026-04-27 08:45 | 37.64979 | -97.42861 | 1326 ft | 16 kts | 171° |
| 2026-04-27 08:45 | 37.64840 | -97.42842 | 1326 ft | 24 kts | 172° |
| 2026-04-27 08:45 | 37.64769 | -97.42831 | 1326 ft | 0 kts | 173° |
| 2026-04-27 08:46 | 37.66133 | -97.41779 | 1324 ft | 0 kts | 200° |
| 2026-04-27 08:47 | 37.66126 | -97.41782 | 1324 ft | 5 kts | 199° |
| 2026-04-27 08:47 | 37.65916 | -97.41876 | 1326 ft | 65 kts | 200° |
| 2026-04-27 08:47 | 37.65459 | -97.42126 | 1700 ft | 67 kts | 194° |
| 2026-04-27 08:47 | 37.65027 | -97.42345 | 2047 ft | 72 kts | 193° |
| 2026-04-27 08:48 | 37.64552 | -97.42566 | 2432 ft | 67 kts | 207° |
| 2026-04-27 08:48 | 37.64142 | -97.42779 | 2811 ft | 65 kts | 202° |
| 2026-04-27 08:48 | 37.63706 | -97.42877 | 3168 ft | 64 kts | 197° |
| 2026-04-27 08:48 | 37.63210 | -97.42858 | 3388 ft | 82 kts | 191° |
| 2026-04-27 08:49 | 37.62620 | -97.42719 | 3730 ft | 89 kts | 186° |
| 2026-04-27 08:49 | 37.62049 | -97.42233 | 4086 ft | 129 kts | 141° |
| 2026-04-27 08:49 | 37.61904 | -97.40958 | 4449 ft | 162 kts | 97° |
| 2026-04-27 08:49 | 37.62394 | -97.39608 | 4793 ft | 173 kts | 57° |
| 2026-04-27 08:50 | 37.63064 | -97.38353 | 5150 ft | 172 kts | 57° |
| 2026-04-27 08:50 | 37.63675 | -97.37070 | 5517 ft | 168 kts | 60° |
| 2026-04-27 08:50 | 37.64243 | -97.35800 | 5853 ft | 165 kts | 60° |
| 2026-04-27 08:50 | 37.64799 | -97.34543 | 6162 ft | 163 kts | 60° |
| 2026-04-27 08:51 | 37.65353 | -97.33298 | 6460 ft | 162 kts | 59° |
| 2026-04-27 08:51 | 37.65904 | -97.32054 | 6758 ft | 163 kts | 59° |
| 2026-04-27 08:51 | 37.66459 | -97.30808 | 7044 ft | 163 kts | 59° |
| 2026-04-27 08:51 | 37.67011 | -97.29560 | 7334 ft | 163 kts | 59° |
| 2026-04-27 08:52 | 37.67567 | -97.28312 | 7610 ft | 163 kts | 59° |
| 2026-04-27 08:52 | 37.68120 | -97.27062 | 7882 ft | 164 kts | 59° |
| 2026-04-27 08:52 | 37.68679 | -97.25806 | 8154 ft | 164 kts | 59° |
| 2026-04-27 08:52 | 37.69236 | -97.24545 | 8421 ft | 165 kts | 59° |
| 2026-04-27 08:53 | 37.69797 | -97.23281 | 8712 ft | 165 kts | 59° |
| 2026-04-27 08:53 | 37.70210 | -97.21940 | 9001 ft | 165 kts | 73° |
| 2026-04-27 08:53 | 37.70710 | -97.20633 | 9284 ft | 166 kts | 60° |
| 2026-04-27 08:53 | 37.71288 | -97.19361 | 9555 ft | 167 kts | 59° |
| 2026-04-27 08:54 | 37.71861 | -97.18101 | 9817 ft | 168 kts | 60° |
| 2026-04-27 08:54 | 37.72439 | -97.16812 | 10094 ft | 169 kts | 60° |
| 2026-04-27 08:54 | 37.73022 | -97.15513 | 10378 ft | 171 kts | 62° |
| 2026-04-27 08:54 | 37.73607 | -97.14205 | 10645 ft | 171 kts | 61° |
| 2026-04-27 08:55 | 37.74198 | -97.12888 | 10936 ft | 173 kts | 62° |
| 2026-04-27 08:55 | 37.74792 | -97.11558 | 11201 ft | 175 kts | 62° |
| 2026-04-27 08:55 | 37.75393 | -97.10215 | 11478 ft | 176 kts | 63° |
| 2026-04-27 08:55 | 37.75998 | -97.08862 | 11759 ft | 177 kts | 63° |
| 2026-04-27 08:56 | 37.76607 | -97.07501 | 12044 ft | 178 kts | 64° |
| 2026-04-27 08:56 | 37.77219 | -97.06131 | 12333 ft | 180 kts | 64° |
| 2026-04-27 08:56 | 37.77838 | -97.04745 | 12623 ft | 181 kts | 65° |
| 2026-04-27 08:56 | 37.78460 | -97.03352 | 12909 ft | 182 kts | 65° |
| 2026-04-27 08:57 | 37.79710 | -97.00550 | 13467 ft | 184 kts | 66° |
| 2026-04-27 08:57 | 37.80337 | -96.99141 | 13735 ft | 184 kts | 67° |
| 2026-04-27 08:57 | 37.80967 | -96.97731 | 14000 ft | 184 kts | 66° |
| 2026-04-27 08:58 | 37.81593 | -96.96324 | 14264 ft | 184 kts | 66° |
| 2026-04-27 08:58 | 37.82220 | -96.94918 | 14523 ft | 183 kts | 67° |
| 2026-04-27 08:58 | 37.82844 | -96.93513 | 14779 ft | 183 kts | 66° |
| 2026-04-27 08:58 | 37.83467 | -96.92115 | 15031 ft | 182 kts | 67° |
| 2026-04-27 08:59 | 37.84088 | -96.90716 | 15289 ft | 182 kts | 66° |
| 2026-04-27 08:59 | 37.84708 | -96.89323 | 15541 ft | 181 kts | 67° |
| 2026-04-27 08:59 | 37.85325 | -96.87934 | 15790 ft | 181 kts | 66° |
| 2026-04-27 08:59 | 37.85942 | -96.86545 | 16037 ft | 181 kts | 67° |
| 2026-04-27 09:00 | 37.86563 | -96.85157 | 16279 ft | 181 kts | 67° |
| 2026-04-27 09:00 | 37.87174 | -96.83772 | 16501 ft | 181 kts | 65° |
| 2026-04-27 09:00 | 37.87787 | -96.82387 | 16748 ft | 180 kts | 66° |
| 2026-04-27 09:00 | 37.88402 | -96.80999 | 16975 ft | 181 kts | 65° |
| 2026-04-27 09:01 | 37.88984 | -96.79598 | 17208 ft | 180 kts | 68° |
| 2026-04-27 09:01 | 37.89583 | -96.78203 | 17444 ft | 180 kts | 66° |
| 2026-04-27 09:01 | 37.90186 | -96.76808 | 17682 ft | 181 kts | 66° |
| 2026-04-27 09:01 | 37.90779 | -96.75406 | 17909 ft | 181 kts | 67° |
| 2026-04-27 09:02 | 37.91372 | -96.74004 | 18102 ft | 181 kts | 67° |
| 2026-04-27 09:02 | 37.91965 | -96.72598 | 18303 ft | 181 kts | 66° |
| 2026-04-27 09:02 | 37.92571 | -96.71157 | 18418 ft | 189 kts | 67° |
| 2026-04-27 09:02 | 37.93200 | -96.69661 | 18541 ft | 196 kts | 66° |
| 2026-04-27 09:03 | 37.93841 | -96.68139 | 18664 ft | 201 kts | 66° |
| 2026-04-27 09:03 | 37.94508 | -96.66556 | 18783 ft | 206 kts | 66° |
| 2026-04-27 09:03 | 37.95184 | -96.64954 | 18901 ft | 209 kts | 66° |
| 2026-04-27 09:03 | 37.95873 | -96.63316 | 19022 ft | 212 kts | 65° |
| 2026-04-27 09:04 | 37.96571 | -96.61656 | 19143 ft | 214 kts | 65° |
| 2026-04-27 09:04 | 37.97275 | -96.59984 | 19266 ft | 216 kts | 66° |
| 2026-04-27 09:04 | 37.97983 | -96.58301 | 19386 ft | 217 kts | 65° |
| 2026-04-27 09:04 | 37.98463 | -96.57159 | 19466 ft | 217 kts | 65° |
| 2026-04-27 09:05 | 37.99174 | -96.55467 | 19584 ft | 217 kts | 65° |
| 2026-04-27 09:05 | 37.99882 | -96.53781 | 19720 ft | 216 kts | 65° |
| 2026-04-27 09:05 | 38.00576 | -96.52125 | 19838 ft | 215 kts | 65° |
| 2026-04-27 09:05 | 38.01277 | -96.50456 | 19990 ft | 215 kts | 66° |
| 2026-04-27 09:06 | 38.01980 | -96.48778 | 20112 ft | 216 kts | 66° |
| 2026-04-27 09:06 | 38.02689 | -96.47089 | 20234 ft | 218 kts | 65° |
| 2026-04-27 09:06 | 38.03399 | -96.45391 | 20329 ft | 218 kts | 64° |
| 2026-04-27 09:06 | 38.04112 | -96.43687 | 20451 ft | 219 kts | 64° |
| 2026-04-27 09:07 | 38.04826 | -96.41982 | 20576 ft | 219 kts | 65° |
| 2026-04-27 09:07 | 38.05538 | -96.40281 | 20701 ft | 218 kts | 64° |
| 2026-04-27 09:07 | 38.06249 | -96.38580 | 20832 ft | 218 kts | 64° |
| 2026-04-27 09:07 | 38.06959 | -96.36877 | 20954 ft | 218 kts | 64° |
| 2026-04-27 09:08 | 38.07670 | -96.35173 | 21087 ft | 219 kts | 64° |
| 2026-04-27 09:08 | 38.08382 | -96.33469 | 21203 ft | 218 kts | 64° |
| 2026-04-27 09:08 | 38.09091 | -96.31770 | 21329 ft | 218 kts | 64° |
| 2026-04-27 09:08 | 38.09799 | -96.30072 | 21456 ft | 217 kts | 64° |
| 2026-04-27 09:09 | 38.10503 | -96.28380 | 21573 ft | 217 kts | 64° |
| 2026-04-27 09:09 | 38.11206 | -96.26691 | 21703 ft | 216 kts | 64° |
| 2026-04-27 09:09 | 38.11907 | -96.25009 | 21831 ft | 215 kts | 64° |
| 2026-04-27 09:09 | 38.12607 | -96.23327 | 21957 ft | 215 kts | 64° |
| 2026-04-27 09:10 | 38.13304 | -96.21647 | 22093 ft | 215 kts | 64° |
| 2026-04-27 09:10 | 38.13998 | -96.19977 | 22221 ft | 214 kts | 64° |
| 2026-04-27 09:10 | 38.14693 | -96.18305 | 22351 ft | 214 kts | 64° |
| 2026-04-27 09:10 | 38.15385 | -96.16639 | 22482 ft | 213 kts | 64° |
| 2026-04-27 09:11 | 38.16075 | -96.14975 | 22614 ft | 213 kts | 63° |
| 2026-04-27 09:11 | 38.16764 | -96.13312 | 22749 ft | 213 kts | 63° |
| 2026-04-27 09:11 | 38.17452 | -96.11651 | 22881 ft | 212 kts | 64° |
| 2026-04-27 09:11 | 38.18140 | -96.09991 | 23014 ft | 212 kts | 64° |
| 2026-04-27 09:12 | 38.18823 | -96.08341 | 23132 ft | 210 kts | 62° |
| 2026-04-27 09:12 | 38.19504 | -96.06697 | 23248 ft | 210 kts | 61° |
| 2026-04-27 09:12 | 38.20179 | -96.05063 | 23361 ft | 208 kts | 61° |
| 2026-04-27 09:12 | 38.20851 | -96.03436 | 23474 ft | 207 kts | 61° |
| 2026-04-27 09:13 | 38.21518 | -96.01822 | 23585 ft | 206 kts | 61° |
| 2026-04-27 09:13 | 38.22181 | -96.00216 | 23701 ft | 204 kts | 60° |
| 2026-04-27 09:13 | 38.22835 | -95.98631 | 23813 ft | 203 kts | 60° |
| 2026-04-27 09:13 | 38.23489 | -95.97046 | 23933 ft | 201 kts | 61° |
| 2026-04-27 09:14 | 38.24138 | -95.95474 | 24047 ft | 200 kts | 60° |
| 2026-04-27 09:14 | 38.24774 | -95.93929 | 24158 ft | 199 kts | 60° |
| 2026-04-27 09:14 | 38.25411 | -95.92382 | 24271 ft | 197 kts | 60° |
| 2026-04-27 09:14 | 38.26044 | -95.90847 | 24383 ft | 195 kts | 60° |
| 2026-04-27 09:15 | 38.26670 | -95.89326 | 24490 ft | 194 kts | 59° |
| 2026-04-27 09:15 | 38.27293 | -95.87810 | 24568 ft | 195 kts | 60° |
| 2026-04-27 09:15 | 38.27933 | -95.86254 | 24566 ft | 202 kts | 60° |
| 2026-04-27 09:15 | 38.28592 | -95.84648 | 24571 ft | 208 kts | 60° |
| 2026-04-27 09:16 | 38.29269 | -95.82995 | 24568 ft | 213 kts | 60° |
| 2026-04-27 09:16 | 38.29962 | -95.81301 | 24572 ft | 218 kts | 60° |
| 2026-04-27 09:16 | 38.30670 | -95.79574 | 24572 ft | 221 kts | 60° |
| 2026-04-27 09:16 | 38.31387 | -95.77826 | 24566 ft | 225 kts | 61° |
| 2026-04-27 09:17 | 38.32111 | -95.76058 | 24570 ft | 226 kts | 61° |
| 2026-04-27 09:17 | 38.32841 | -95.74275 | 24572 ft | 228 kts | 61° |
| 2026-04-27 09:17 | 38.33577 | -95.72477 | 24573 ft | 229 kts | 61° |
| 2026-04-27 09:17 | 38.34317 | -95.70667 | 24553 ft | 231 kts | 61° |
| 2026-04-27 09:18 | 38.35059 | -95.68849 | 24555 ft | 232 kts | 61° |
| 2026-04-27 09:18 | 38.35805 | -95.67024 | 24555 ft | 233 kts | 61° |
| 2026-04-27 09:18 | 38.36552 | -95.65192 | 24557 ft | 233 kts | 61° |
| 2026-04-27 09:18 | 38.37303 | -95.63352 | 24559 ft | 234 kts | 61° |
| 2026-04-27 09:19 | 38.38053 | -95.61513 | 24617 ft | 234 kts | 61° |
| 2026-04-27 09:19 | 38.38804 | -95.59672 | 24617 ft | 234 kts | 61° |
| 2026-04-27 09:19 | 38.39555 | -95.57829 | 24617 ft | 235 kts | 61° |
| 2026-04-27 09:19 | 38.40306 | -95.55982 | 24619 ft | 235 kts | 61° |
| 2026-04-27 09:20 | 38.41059 | -95.54132 | 24616 ft | 235 kts | 61° |
| 2026-04-27 09:20 | 38.41811 | -95.52281 | 24617 ft | 235 kts | 61° |
| 2026-04-27 09:20 | 38.42563 | -95.50431 | 24617 ft | 235 kts | 61° |
| 2026-04-27 09:20 | 38.43315 | -95.48578 | 24616 ft | 235 kts | 61° |
| 2026-04-27 09:21 | 38.44066 | -95.46729 | 24617 ft | 235 kts | 61° |
| 2026-04-27 09:21 | 38.44818 | -95.44874 | 24617 ft | 235 kts | 62° |
| 2026-04-27 09:21 | 38.45559 | -95.43046 | 24617 ft | 235 kts | 62° |
| 2026-04-27 09:21 | 38.46310 | -95.41193 | 24617 ft | 235 kts | 62° |
| 2026-04-27 09:22 | 38.47062 | -95.39336 | 24617 ft | 235 kts | 62° |
| 2026-04-27 09:22 | 38.47811 | -95.37484 | 24617 ft | 235 kts | 61° |
| 2026-04-27 09:22 | 38.48560 | -95.35632 | 24618 ft | 235 kts | 61° |
| 2026-04-27 09:22 | 38.49309 | -95.33779 | 24617 ft | 235 kts | 61° |
| 2026-04-27 09:23 | 38.50057 | -95.31926 | 24613 ft | 234 kts | 62° |
| 2026-04-27 09:23 | 38.50802 | -95.30082 | 24615 ft | 234 kts | 62° |
| 2026-04-27 09:23 | 38.51546 | -95.28236 | 24615 ft | 233 kts | 62° |
| 2026-04-27 09:23 | 38.52288 | -95.26396 | 24614 ft | 233 kts | 62° |
| 2026-04-27 09:24 | 38.53029 | -95.24557 | 24612 ft | 233 kts | 62° |
| 2026-04-27 09:24 | 38.53769 | -95.22720 | 24626 ft | 233 kts | 62° |
| 2026-04-27 09:24 | 38.54509 | -95.20882 | 24628 ft | 233 kts | 62° |
| 2026-04-27 09:24 | 38.55251 | -95.19038 | 24631 ft | 233 kts | 62° |
| 2026-04-27 09:25 | 38.55990 | -95.17198 | 24629 ft | 233 kts | 62° |
| 2026-04-27 09:25 | 38.56728 | -95.15362 | 24629 ft | 232 kts | 62° |
| 2026-04-27 09:25 | 38.57465 | -95.13528 | 24629 ft | 232 kts | 62° |
| 2026-04-27 09:25 | 38.58202 | -95.11691 | 24629 ft | 232 kts | 62° |
| 2026-04-27 09:26 | 38.58937 | -95.09856 | 24627 ft | 232 kts | 62° |
| 2026-04-27 09:26 | 38.59673 | -95.08021 | 24627 ft | 232 kts | 62° |
| 2026-04-27 09:26 | 38.60410 | -95.06180 | 24628 ft | 233 kts | 62° |
| 2026-04-27 09:26 | 38.61147 | -95.04339 | 24628 ft | 233 kts | 62° |
| 2026-04-27 09:27 | 38.61883 | -95.02499 | 24636 ft | 233 kts | 62° |
| 2026-04-27 09:27 | 38.62619 | -95.00659 | 24637 ft | 232 kts | 62° |
| 2026-04-27 09:27 | 38.63355 | -94.98819 | 24637 ft | 232 kts | 62° |
| 2026-04-27 09:27 | 38.64089 | -94.96981 | 24636 ft | 232 kts | 62° |
| 2026-04-27 09:28 | 38.64824 | -94.95140 | 24620 ft | 232 kts | 61° |
| 2026-04-27 09:28 | 38.65556 | -94.93304 | 24620 ft | 232 kts | 61° |
| 2026-04-27 09:28 | 38.66288 | -94.91469 | 24621 ft | 232 kts | 61° |
| 2026-04-27 09:28 | 38.67018 | -94.89634 | 24622 ft | 232 kts | 61° |
| 2026-04-27 09:29 | 38.67741 | -94.87819 | 24642 ft | 232 kts | 61° |
| 2026-04-27 09:29 | 38.68472 | -94.85981 | 24644 ft | 232 kts | 61° |
| 2026-04-27 09:29 | 38.69203 | -94.84144 | 24644 ft | 232 kts | 61° |
| 2026-04-27 09:29 | 38.69933 | -94.82308 | 24646 ft | 232 kts | 62° |
| 2026-04-27 09:30 | 38.70663 | -94.80471 | 24645 ft | 232 kts | 62° |
| 2026-04-27 09:30 | 38.71395 | -94.78629 | 24660 ft | 232 kts | 62° |
| 2026-04-27 09:30 | 38.72125 | -94.76788 | 24662 ft | 232 kts | 62° |
| 2026-04-27 09:30 | 38.72855 | -94.74947 | 24664 ft | 232 kts | 61° |
| 2026-04-27 09:31 | 38.73584 | -94.73106 | 24665 ft | 232 kts | 61° |
| 2026-04-27 09:31 | 38.74315 | -94.71262 | 24667 ft | 232 kts | 61° |
| 2026-04-27 09:31 | 38.75043 | -94.69420 | 24667 ft | 232 kts | 61° |
| 2026-04-27 09:31 | 38.75772 | -94.67579 | 24861 ft | 232 kts | 62° |
| 2026-04-27 09:32 | 38.76501 | -94.65733 | 24875 ft | 232 kts | 62° |
| 2026-04-27 09:32 | 38.77229 | -94.63891 | 24888 ft | 232 kts | 62° |
| 2026-04-27 09:32 | 38.77957 | -94.62048 | 24891 ft | 232 kts | 62° |
| 2026-04-27 09:32 | 38.78686 | -94.60202 | 24892 ft | 232 kts | 62° |
| 2026-04-27 09:33 | 38.79413 | -94.58358 | 24891 ft | 232 kts | 62° |
| 2026-04-27 09:33 | 38.80138 | -94.56511 | 24893 ft | 232 kts | 64° |
| 2026-04-27 09:33 | 38.80866 | -94.54665 | 24905 ft | 232 kts | 64° |
| 2026-04-27 09:33 | 38.81599 | -94.52811 | 24905 ft | 234 kts | 64° |
| 2026-04-27 09:34 | 38.82331 | -94.50950 | 24906 ft | 234 kts | 64° |
| 2026-04-27 09:34 | 38.83066 | -94.49079 | 24907 ft | 235 kts | 64° |
| 2026-04-27 09:34 | 38.83790 | -94.47236 | 24907 ft | 235 kts | 64° |
| 2026-04-27 09:34 | 38.84526 | -94.45362 | 24908 ft | 236 kts | 64° |
| 2026-04-27 09:35 | 38.85265 | -94.43480 | 24899 ft | 236 kts | 64° |
| 2026-04-27 09:35 | 38.86003 | -94.41598 | 24674 ft | 236 kts | 64° |
| 2026-04-27 09:35 | 38.86741 | -94.39716 | 24674 ft | 236 kts | 64° |
| 2026-04-27 09:35 | 38.87479 | -94.37833 | 24673 ft | 236 kts | 64° |
| 2026-04-27 09:36 | 38.88216 | -94.35949 | 24675 ft | 237 kts | 64° |
| 2026-04-27 09:36 | 38.88955 | -94.34061 | 24672 ft | 237 kts | 64° |
| 2026-04-27 09:36 | 38.89694 | -94.32168 | 24672 ft | 237 kts | 64° |
| 2026-04-27 09:36 | 38.90433 | -94.30279 | 24672 ft | 237 kts | 64° |
| 2026-04-27 09:37 | 38.91170 | -94.28391 | 24671 ft | 236 kts | 64° |
| 2026-04-27 09:37 | 38.91906 | -94.26505 | 24691 ft | 236 kts | 64° |
| 2026-04-27 09:37 | 38.92643 | -94.24615 | 24692 ft | 236 kts | 64° |
| 2026-04-27 09:37 | 38.93380 | -94.22726 | 24691 ft | 237 kts | 64° |
| 2026-04-27 09:38 | 38.94117 | -94.20834 | 24690 ft | 237 kts | 64° |
| 2026-04-27 09:38 | 38.94854 | -94.18940 | 24696 ft | 237 kts | 64° |
| 2026-04-27 09:38 | 38.95591 | -94.17046 | 24691 ft | 237 kts | 64° |
| 2026-04-27 09:38 | 38.96327 | -94.15154 | 24691 ft | 237 kts | 64° |
| 2026-04-27 09:39 | 38.97062 | -94.13263 | 24693 ft | 237 kts | 64° |
| 2026-04-27 09:39 | 38.97796 | -94.11371 | 24693 ft | 236 kts | 64° |
| 2026-04-27 09:39 | 38.98528 | -94.09484 | 24694 ft | 236 kts | 64° |
| 2026-04-27 09:39 | 38.99260 | -94.07598 | 24694 ft | 236 kts | 64° |
| 2026-04-27 09:40 | 38.99991 | -94.05712 | 24691 ft | 236 kts | 64° |
| 2026-04-27 09:40 | 39.00722 | -94.03826 | 24691 ft | 235 kts | 64° |
| 2026-04-27 09:40 | 39.01451 | -94.01944 | 24692 ft | 235 kts | 65° |
| 2026-04-27 09:40 | 39.02180 | -94.00060 | 24671 ft | 235 kts | 65° |
| 2026-04-27 09:41 | 39.02908 | -93.98176 | 24668 ft | 236 kts | 64° |
| 2026-04-27 09:41 | 39.03628 | -93.96314 | 24674 ft | 236 kts | 65° |
| 2026-04-27 09:41 | 39.04358 | -93.94425 | 24674 ft | 236 kts | 64° |
| 2026-04-27 09:41 | 39.05086 | -93.92537 | 24675 ft | 236 kts | 64° |
| 2026-04-27 09:42 | 39.05815 | -93.90646 | 24699 ft | 236 kts | 63° |
| 2026-04-27 09:42 | 39.06548 | -93.88748 | 24676 ft | 238 kts | 64° |
| 2026-04-27 09:42 | 39.07283 | -93.86839 | 24678 ft | 238 kts | 64° |
| 2026-04-27 09:42 | 39.08018 | -93.84928 | 24681 ft | 238 kts | 64° |
| 2026-04-27 09:43 | 39.08751 | -93.83022 | 24681 ft | 238 kts | 64° |
| 2026-04-27 09:43 | 39.09487 | -93.81109 | 24688 ft | 238 kts | 64° |
| 2026-04-27 09:43 | 39.10220 | -93.79200 | 24682 ft | 238 kts | 65° |
| 2026-04-27 09:43 | 39.10951 | -93.77296 | 24690 ft | 237 kts | 65° |
| 2026-04-27 09:44 | 39.11681 | -93.75395 | 24692 ft | 237 kts | 65° |
| 2026-04-27 09:44 | 39.12410 | -93.73493 | 24701 ft | 237 kts | 65° |
| 2026-04-27 09:44 | 39.13140 | -93.71589 | 24701 ft | 237 kts | 65° |
| 2026-04-27 09:44 | 39.13867 | -93.69689 | 24701 ft | 237 kts | 65° |
| 2026-04-27 09:45 | 39.14595 | -93.67790 | 24704 ft | 236 kts | 65° |
| 2026-04-27 09:45 | 39.15321 | -93.65891 | 24703 ft | 236 kts | 65° |
| 2026-04-27 09:45 | 39.16047 | -93.63993 | 24702 ft | 236 kts | 65° |
| 2026-04-27 09:45 | 39.16773 | -93.62093 | 24702 ft | 236 kts | 65° |
| 2026-04-27 09:46 | 39.17498 | -93.60194 | 24701 ft | 236 kts | 65° |
| 2026-04-27 09:46 | 39.18223 | -93.58295 | 24701 ft | 236 kts | 65° |
| 2026-04-27 09:46 | 39.18879 | -93.56364 | 24705 ft | 235 kts | 71° |
| 2026-04-27 09:46 | 39.19490 | -93.54407 | 24702 ft | 235 kts | 70° |
| 2026-04-27 09:47 | 39.20110 | -93.52455 | 24701 ft | 235 kts | 70° |
| 2026-04-27 09:47 | 39.20725 | -93.50500 | 24708 ft | 235 kts | 71° |
| 2026-04-27 09:47 | 39.21337 | -93.48543 | 24707 ft | 235 kts | 71° |
| 2026-04-27 09:47 | 39.21949 | -93.46585 | 24706 ft | 235 kts | 70° |
| 2026-04-27 09:48 | 39.22551 | -93.44660 | 24704 ft | 235 kts | 71° |
| 2026-04-27 09:48 | 39.23162 | -93.42710 | 24704 ft | 235 kts | 71° |
| 2026-04-27 09:48 | 39.23771 | -93.40759 | 24704 ft | 235 kts | 71° |
| 2026-04-27 09:48 | 39.24382 | -93.38804 | 24703 ft | 235 kts | 71° |
| 2026-04-27 09:49 | 39.24991 | -93.36852 | 24702 ft | 235 kts | 71° |
| 2026-04-27 09:49 | 39.25600 | -93.34901 | 24702 ft | 235 kts | 71° |
| 2026-04-27 09:49 | 39.26208 | -93.32947 | 24703 ft | 235 kts | 71° |
| 2026-04-27 09:49 | 39.26817 | -93.30992 | 24703 ft | 235 kts | 71° |
| 2026-04-27 09:50 | 39.27424 | -93.29040 | 24704 ft | 235 kts | 71° |
| 2026-04-27 09:50 | 39.28032 | -93.27087 | 24704 ft | 235 kts | 71° |
| 2026-04-27 09:50 | 39.28639 | -93.25130 | 24705 ft | 235 kts | 71° |
| 2026-04-27 09:50 | 39.29248 | -93.23169 | 24705 ft | 235 kts | 71° |
| 2026-04-27 09:51 | 39.29856 | -93.21210 | 24706 ft | 235 kts | 71° |
| 2026-04-27 09:51 | 39.30464 | -93.19251 | 24703 ft | 235 kts | 71° |
| 2026-04-27 09:51 | 39.31071 | -93.17293 | 24714 ft | 235 kts | 73° |
| 2026-04-27 09:51 | 39.31675 | -93.15338 | 24713 ft | 234 kts | 73° |
| 2026-04-27 09:52 | 39.32281 | -93.13382 | 24714 ft | 234 kts | 73° |
| 2026-04-27 09:52 | 39.32884 | -93.11431 | 24714 ft | 234 kts | 73° |
| 2026-04-27 09:52 | 39.33487 | -93.09479 | 24715 ft | 234 kts | 73° |
| 2026-04-27 09:52 | 39.34089 | -93.07530 | 24716 ft | 233 kts | 73° |
| 2026-04-27 09:53 | 39.34689 | -93.05585 | 24716 ft | 233 kts | 73° |
| 2026-04-27 09:53 | 39.35291 | -93.03628 | 24714 ft | 235 kts | 73° |
| 2026-04-27 09:53 | 39.35895 | -93.01669 | 24710 ft | 235 kts | 73° |
| 2026-04-27 09:53 | 39.36502 | -92.99700 | 24711 ft | 236 kts | 73° |
| 2026-04-27 09:54 | 39.37107 | -92.97733 | 24711 ft | 236 kts | 73° |
| 2026-04-27 09:54 | 39.37712 | -92.95764 | 24713 ft | 236 kts | 73° |
| 2026-04-27 09:54 | 39.38317 | -92.93796 | 24714 ft | 236 kts | 74° |
| 2026-04-27 09:54 | 39.38923 | -92.91820 | 24711 ft | 237 kts | 74° |
| 2026-04-27 09:55 | 39.39326 | -92.90507 | 24710 ft | 237 kts | 74° |
| 2026-04-27 09:55 | 39.39932 | -92.88530 | 24703 ft | 237 kts | 74° |
| 2026-04-27 09:55 | 39.41145 | -92.84569 | 24703 ft | 237 kts | 73° |
| 2026-04-27 09:56 | 39.41751 | -92.82589 | 24702 ft | 237 kts | 73° |
| 2026-04-27 09:56 | 39.42357 | -92.80607 | 24720 ft | 237 kts | 73° |
| 2026-04-27 09:56 | 39.42962 | -92.78624 | 24716 ft | 237 kts | 73° |
| 2026-04-27 09:56 | 39.43567 | -92.76641 | 24719 ft | 237 kts | 73° |
| 2026-04-27 09:57 | 39.44172 | -92.74660 | 24721 ft | 237 kts | 73° |
| 2026-04-27 09:57 | 39.44776 | -92.72677 | 24723 ft | 237 kts | 74° |
| 2026-04-27 09:57 | 39.45380 | -92.70693 | 24727 ft | 237 kts | 74° |
| 2026-04-27 09:57 | 39.45985 | -92.68706 | 24729 ft | 237 kts | 74° |
| 2026-04-27 09:58 | 39.46588 | -92.66721 | 24712 ft | 236 kts | 73° |
| 2026-04-27 09:58 | 39.47187 | -92.64753 | 24720 ft | 235 kts | 72° |
| 2026-04-27 09:58 | 39.47782 | -92.62794 | 24722 ft | 233 kts | 72° |
| 2026-04-27 09:58 | 39.48376 | -92.60839 | 24723 ft | 233 kts | 72° |
| 2026-04-27 09:59 | 39.48965 | -92.58894 | 24725 ft | 232 kts | 72° |
| 2026-04-27 09:59 | 39.49553 | -92.56953 | 24728 ft | 232 kts | 72° |
| 2026-04-27 09:59 | 39.50141 | -92.55012 | 24731 ft | 231 kts | 72° |
| 2026-04-27 09:59 | 39.50726 | -92.53078 | 24732 ft | 231 kts | 72° |
| 2026-04-27 10:00 | 39.51311 | -92.51142 | 24730 ft | 231 kts | 72° |
| 2026-04-27 10:00 | 39.51896 | -92.49207 | 24733 ft | 231 kts | 72° |
| 2026-04-27 10:00 | 39.52481 | -92.47269 | 24731 ft | 230 kts | 72° |
| 2026-04-27 10:00 | 39.53065 | -92.45335 | 24733 ft | 230 kts | 72° |
| 2026-04-27 10:01 | 39.53647 | -92.43405 | 24731 ft | 230 kts | 72° |
| 2026-04-27 10:01 | 39.54229 | -92.41473 | 24732 ft | 230 kts | 72° |
| 2026-04-27 10:01 | 39.54810 | -92.39546 | 24730 ft | 230 kts | 72° |
| 2026-04-27 10:01 | 39.55383 | -92.37640 | 24737 ft | 230 kts | 72° |
| 2026-04-27 10:02 | 39.55964 | -92.35707 | 24743 ft | 230 kts | 73° |
| 2026-04-27 10:02 | 39.56544 | -92.33775 | 24742 ft | 230 kts | 73° |
| 2026-04-27 10:02 | 39.57124 | -92.31841 | 24740 ft | 230 kts | 73° |
| 2026-04-27 10:02 | 39.57703 | -92.29912 | 24737 ft | 230 kts | 73° |
| 2026-04-27 10:03 | 39.58280 | -92.27989 | 24731 ft | 228 kts | 72° |
| 2026-04-27 10:03 | 39.58854 | -92.26073 | 24728 ft | 228 kts | 72° |
| 2026-04-27 10:03 | 39.59424 | -92.24166 | 24727 ft | 227 kts | 72° |
| 2026-04-27 10:03 | 39.59995 | -92.22256 | 24727 ft | 227 kts | 72° |
| 2026-04-27 10:04 | 39.60564 | -92.20352 | 24726 ft | 226 kts | 73° |
| 2026-04-27 10:04 | 39.61132 | -92.18452 | 24725 ft | 226 kts | 73° |
| 2026-04-27 10:04 | 39.61699 | -92.16554 | 24724 ft | 226 kts | 73° |
| 2026-04-27 10:04 | 39.62266 | -92.14656 | 24724 ft | 226 kts | 73° |
| 2026-04-27 10:05 | 39.62835 | -92.12757 | 24731 ft | 226 kts | 73° |
| 2026-04-27 10:05 | 39.63406 | -92.10860 | 24730 ft | 225 kts | 72° |
| 2026-04-27 10:05 | 39.63980 | -92.08968 | 24729 ft | 225 kts | 72° |
| 2026-04-27 10:05 | 39.64558 | -92.07076 | 24730 ft | 226 kts | 72° |
| 2026-04-27 10:06 | 39.65139 | -92.05185 | 24730 ft | 226 kts | 72° |
| 2026-04-27 10:06 | 39.65722 | -92.03297 | 24729 ft | 226 kts | 72° |
| 2026-04-27 10:06 | 39.66309 | -92.01410 | 24729 ft | 226 kts | 71° |
| 2026-04-27 10:06 | 39.66898 | -91.99524 | 24730 ft | 225 kts | 71° |
| 2026-04-27 10:07 | 39.67491 | -91.97638 | 24738 ft | 226 kts | 71° |
| 2026-04-27 10:07 | 39.68087 | -91.95756 | 24738 ft | 226 kts | 71° |
| 2026-04-27 10:07 | 39.68686 | -91.93874 | 24738 ft | 226 kts | 71° |
| 2026-04-27 10:07 | 39.69289 | -91.91992 | 24738 ft | 226 kts | 71° |
| 2026-04-27 10:08 | 39.69894 | -91.90113 | 24743 ft | 225 kts | 69° |
| 2026-04-27 10:08 | 39.70499 | -91.88239 | 24740 ft | 225 kts | 69° |
| 2026-04-27 10:08 | 39.70845 | -91.86306 | 24767 ft | 216 kts | 99° |
| 2026-04-27 10:08 | 39.70804 | -91.84354 | 24764 ft | 218 kts | 95° |
| 2026-04-27 10:09 | 39.71133 | -91.82404 | 24763 ft | 224 kts | 72° |
| 2026-04-27 10:09 | 39.71763 | -91.80546 | 24768 ft | 225 kts | 67° |
| 2026-04-27 10:09 | 39.72383 | -91.78683 | 24771 ft | 224 kts | 70° |
| 2026-04-27 10:09 | 39.72946 | -91.76794 | 24774 ft | 224 kts | 72° |
| 2026-04-27 10:10 | 39.73500 | -91.74900 | 24775 ft | 225 kts | 71° |
| 2026-04-27 10:10 | 39.74064 | -91.73008 | 24778 ft | 225 kts | 71° |
| 2026-04-27 10:10 | 39.74624 | -91.71140 | 24779 ft | 225 kts | 71° |
| 2026-04-27 10:10 | 39.75190 | -91.69249 | 24782 ft | 225 kts | 71° |
| 2026-04-27 10:11 | 39.75754 | -91.67357 | 24787 ft | 225 kts | 71° |
| 2026-04-27 10:11 | 39.76319 | -91.65462 | 24791 ft | 225 kts | 71° |
| 2026-04-27 10:11 | 39.76885 | -91.63565 | 24792 ft | 225 kts | 71° |
| 2026-04-27 10:11 | 39.77450 | -91.61666 | 24793 ft | 225 kts | 71° |
| 2026-04-27 10:12 | 39.78017 | -91.59770 | 24797 ft | 225 kts | 71° |
| 2026-04-27 10:12 | 39.78588 | -91.57873 | 24797 ft | 225 kts | 71° |
| 2026-04-27 10:12 | 39.79162 | -91.55977 | 24800 ft | 225 kts | 71° |
| 2026-04-27 10:12 | 39.79738 | -91.54081 | 24812 ft | 226 kts | 71° |
| 2026-04-27 10:13 | 39.80317 | -91.52187 | 24798 ft | 224 kts | 69° |
| 2026-04-27 10:13 | 39.80893 | -91.50312 | 24797 ft | 223 kts | 69° |
| 2026-04-27 10:13 | 39.81468 | -91.48446 | 24798 ft | 221 kts | 69° |
| 2026-04-27 10:13 | 39.82042 | -91.46596 | 24796 ft | 220 kts | 69° |
| 2026-04-27 10:14 | 39.82619 | -91.44749 | 24795 ft | 220 kts | 69° |
| 2026-04-27 10:14 | 39.83195 | -91.42911 | 24795 ft | 219 kts | 68° |
| 2026-04-27 10:14 | 39.83773 | -91.41077 | 24793 ft | 219 kts | 68° |
| 2026-04-27 10:14 | 39.84354 | -91.39247 | 24792 ft | 219 kts | 68° |
| 2026-04-27 10:15 | 39.84936 | -91.37423 | 24793 ft | 219 kts | 68° |
| 2026-04-27 10:15 | 39.85522 | -91.35598 | 24795 ft | 218 kts | 68° |
| 2026-04-27 10:15 | 39.86110 | -91.33775 | 24789 ft | 218 kts | 67° |
| 2026-04-27 10:15 | 39.86702 | -91.31953 | 24789 ft | 218 kts | 67° |
| 2026-04-27 10:16 | 39.87297 | -91.30133 | 24791 ft | 219 kts | 67° |
| 2026-04-27 10:16 | 39.87894 | -91.28315 | 24791 ft | 219 kts | 67° |
| 2026-04-27 10:16 | 39.88495 | -91.26495 | 24791 ft | 219 kts | 67° |
| 2026-04-27 10:16 | 39.89098 | -91.24679 | 24792 ft | 218 kts | 67° |
| 2026-04-27 10:17 | 39.89703 | -91.22868 | 24791 ft | 218 kts | 66° |
| 2026-04-27 10:17 | 39.90311 | -91.21056 | 24791 ft | 218 kts | 66° |
| 2026-04-27 10:17 | 39.90923 | -91.19244 | 24792 ft | 218 kts | 66° |
| 2026-04-27 10:17 | 39.91537 | -91.17433 | 24791 ft | 218 kts | 66° |
| 2026-04-27 10:18 | 39.92154 | -91.15622 | 24789 ft | 218 kts | 66° |
| 2026-04-27 10:18 | 39.92772 | -91.13821 | 24793 ft | 217 kts | 65° |
| 2026-04-27 10:18 | 39.93391 | -91.12025 | 24790 ft | 217 kts | 65° |
| 2026-04-27 10:18 | 39.94013 | -91.10233 | 24790 ft | 217 kts | 65° |
| 2026-04-27 10:19 | 39.94638 | -91.08442 | 24790 ft | 217 kts | 65° |
| 2026-04-27 10:19 | 39.95266 | -91.06650 | 24789 ft | 217 kts | 65° |
| 2026-04-27 10:19 | 39.95896 | -91.04863 | 24792 ft | 217 kts | 65° |
| 2026-04-27 10:19 | 39.96529 | -91.03076 | 24792 ft | 217 kts | 64° |
| 2026-04-27 10:20 | 39.97165 | -91.01289 | 24792 ft | 217 kts | 64° |
| 2026-04-27 10:20 | 39.97805 | -90.99501 | 24791 ft | 217 kts | 64° |
| 2026-04-27 10:20 | 39.98447 | -90.97718 | 24792 ft | 217 kts | 64° |
| 2026-04-27 10:20 | 39.99090 | -90.95937 | 24792 ft | 217 kts | 64° |
| 2026-04-27 10:21 | 39.99737 | -90.94158 | 24791 ft | 217 kts | 64° |
| 2026-04-27 10:21 | 40.00386 | -90.92381 | 24794 ft | 217 kts | 64° |
| 2026-04-27 10:21 | 40.01038 | -90.90608 | 24810 ft | 217 kts | 64° |
| 2026-04-27 10:21 | 40.01694 | -90.88830 | 24811 ft | 217 kts | 64° |
| 2026-04-27 10:22 | 40.02351 | -90.87058 | 24808 ft | 217 kts | 63° |
| 2026-04-27 10:22 | 40.03011 | -90.85289 | 24820 ft | 217 kts | 63° |
| 2026-04-27 10:22 | 40.03672 | -90.83524 | 24821 ft | 216 kts | 63° |
| 2026-04-27 10:22 | 40.04335 | -90.81761 | 24820 ft | 216 kts | 62° |
| 2026-04-27 10:23 | 40.04999 | -90.80005 | 24820 ft | 216 kts | 62° |
| 2026-04-27 10:23 | 40.05666 | -90.78249 | 24820 ft | 216 kts | 62° |
| 2026-04-27 10:23 | 40.06336 | -90.76496 | 24820 ft | 216 kts | 62° |
| 2026-04-27 10:23 | 40.07005 | -90.74751 | 24826 ft | 214 kts | 62° |
| 2026-04-27 10:24 | 40.07672 | -90.73018 | 24826 ft | 213 kts | 62° |
| 2026-04-27 10:24 | 40.08339 | -90.71291 | 24825 ft | 212 kts | 62° |
| 2026-04-27 10:24 | 40.09005 | -90.69574 | 24824 ft | 212 kts | 62° |
| 2026-04-27 10:24 | 40.09670 | -90.67865 | 24824 ft | 211 kts | 62° |
| 2026-04-27 10:25 | 40.10340 | -90.66155 | 24828 ft | 211 kts | 62° |
| 2026-04-27 10:25 | 40.11010 | -90.64451 | 24826 ft | 211 kts | 62° |
| 2026-04-27 10:25 | 40.11683 | -90.62749 | 24826 ft | 211 kts | 61° |
| 2026-04-27 10:25 | 40.12357 | -90.61051 | 24832 ft | 211 kts | 61° |
| 2026-04-27 10:26 | 40.13033 | -90.59357 | 24833 ft | 210 kts | 61° |
| 2026-04-27 10:26 | 40.13714 | -90.57661 | 24832 ft | 210 kts | 61° |
| 2026-04-27 10:26 | 40.14395 | -90.55970 | 24832 ft | 210 kts | 60° |
| 2026-04-27 10:26 | 40.15078 | -90.54282 | 24832 ft | 210 kts | 60° |
| 2026-04-27 10:27 | 40.15763 | -90.52599 | 24829 ft | 210 kts | 60° |
| 2026-04-27 10:27 | 40.16451 | -90.50917 | 24829 ft | 210 kts | 60° |
| 2026-04-27 10:27 | 40.17141 | -90.49237 | 24829 ft | 210 kts | 60° |
| 2026-04-27 10:27 | 40.17835 | -90.47557 | 24829 ft | 210 kts | 60° |
| 2026-04-27 10:28 | 40.18529 | -90.45886 | 24829 ft | 209 kts | 60° |
| 2026-04-27 10:28 | 40.19218 | -90.44235 | 24843 ft | 209 kts | 60° |
| 2026-04-27 10:28 | 40.19919 | -90.42564 | 24843 ft | 210 kts | 59° |
| 2026-04-27 10:28 | 40.20631 | -90.40875 | 24843 ft | 210 kts | 59° |
| 2026-04-27 10:29 | 40.21329 | -90.39228 | 24840 ft | 210 kts | 59° |
| 2026-04-27 10:29 | 40.22039 | -90.37560 | 24829 ft | 210 kts | 59° |
| 2026-04-27 10:29 | 40.22753 | -90.35891 | 24831 ft | 211 kts | 58° |
| 2026-04-27 10:29 | 40.23472 | -90.34221 | 24831 ft | 211 kts | 58° |
| 2026-04-27 10:30 | 40.24194 | -90.32549 | 24833 ft | 211 kts | 58° |
| 2026-04-27 10:30 | 40.24921 | -90.30877 | 24833 ft | 211 kts | 58° |
| 2026-04-27 10:30 | 40.25651 | -90.29205 | 24853 ft | 212 kts | 57° |
| 2026-04-27 10:30 | 40.26387 | -90.27530 | 24854 ft | 213 kts | 57° |
| 2026-04-27 10:31 | 40.27128 | -90.25853 | 24851 ft | 213 kts | 57° |
| 2026-04-27 10:31 | 40.27875 | -90.24172 | 24851 ft | 213 kts | 57° |
| 2026-04-27 10:31 | 40.28625 | -90.22494 | 24851 ft | 214 kts | 57° |
| 2026-04-27 10:31 | 40.29379 | -90.20815 | 24851 ft | 214 kts | 57° |
| 2026-04-27 10:32 | 40.30137 | -90.19136 | 24853 ft | 214 kts | 57° |
| 2026-04-27 10:32 | 40.30898 | -90.17457 | 24852 ft | 214 kts | 56° |
| 2026-04-27 10:32 | 40.31662 | -90.15780 | 24852 ft | 215 kts | 56° |
| 2026-04-27 10:32 | 40.32429 | -90.14104 | 24863 ft | 214 kts | 56° |
| 2026-04-27 10:33 | 40.33199 | -90.12430 | 24863 ft | 214 kts | 56° |
| 2026-04-27 10:33 | 40.33972 | -90.10756 | 24863 ft | 214 kts | 56° |
| 2026-04-27 10:33 | 40.34746 | -90.09089 | 24863 ft | 214 kts | 55° |
| 2026-04-27 10:33 | 40.35522 | -90.07422 | 24863 ft | 214 kts | 55° |
| 2026-04-27 10:34 | 40.36301 | -90.05760 | 24863 ft | 214 kts | 55° |
| 2026-04-27 10:34 | 40.37083 | -90.04097 | 24863 ft | 214 kts | 55° |
| 2026-04-27 10:34 | 40.37868 | -90.02438 | 24863 ft | 214 kts | 55° |
| 2026-04-27 10:34 | 40.38654 | -90.00782 | 24863 ft | 214 kts | 55° |
| 2026-04-27 10:35 | 40.39446 | -89.99125 | 24861 ft | 214 kts | 55° |
| 2026-04-27 10:35 | 40.40236 | -89.97476 | 24856 ft | 214 kts | 55° |
| 2026-04-27 10:35 | 40.41029 | -89.95830 | 24856 ft | 213 kts | 55° |
| 2026-04-27 10:35 | 40.41823 | -89.94187 | 24856 ft | 213 kts | 54° |
| 2026-04-27 10:36 | 40.42621 | -89.92545 | 24854 ft | 213 kts | 54° |
| 2026-04-27 10:36 | 40.43419 | -89.90909 | 24855 ft | 213 kts | 54° |
| 2026-04-27 10:36 | 40.44209 | -89.89297 | 24856 ft | 213 kts | 54° |
| 2026-04-27 10:36 | 40.45025 | -89.87640 | 24856 ft | 213 kts | 54° |
| 2026-04-27 10:37 | 40.45819 | -89.86034 | 24859 ft | 213 kts | 53° |
| 2026-04-27 10:37 | 40.46628 | -89.84407 | 24859 ft | 213 kts | 53° |
| 2026-04-27 10:37 | 40.47438 | -89.82783 | 24860 ft | 213 kts | 53° |
| 2026-04-27 10:37 | 40.48252 | -89.81160 | 24872 ft | 213 kts | 53° |
| 2026-04-27 10:38 | 40.49070 | -89.79538 | 24873 ft | 213 kts | 53° |
| 2026-04-27 10:38 | 40.49891 | -89.77917 | 24874 ft | 213 kts | 53° |
| 2026-04-27 10:38 | 40.50717 | -89.76295 | 24874 ft | 213 kts | 53° |
| 2026-04-27 10:38 | 40.51544 | -89.74678 | 24875 ft | 213 kts | 53° |
| 2026-04-27 10:39 | 40.52374 | -89.73062 | 24874 ft | 213 kts | 53° |
| 2026-04-27 10:39 | 40.53200 | -89.71460 | 24956 ft | 208 kts | 52° |
| 2026-04-27 10:39 | 40.54000 | -89.69910 | 25066 ft | 203 kts | 52° |
| 2026-04-27 10:39 | 40.54821 | -89.68340 | 24945 ft | 213 kts | 52° |
| 2026-04-27 10:40 | 40.55677 | -89.66718 | 24875 ft | 217 kts | 52° |
| 2026-04-27 10:40 | 40.56509 | -89.65064 | 24873 ft | 218 kts | 65° |
| 2026-04-27 10:40 | 40.56842 | -89.63134 | 24880 ft | 217 kts | 85° |
| 2026-04-27 10:40 | 40.57211 | -89.61208 | 24870 ft | 218 kts | 68° |
| 2026-04-27 10:41 | 40.57848 | -89.59404 | 24867 ft | 217 kts | 62° |
| 2026-04-27 10:41 | 40.58295 | -89.58227 | 24867 ft | 217 kts | 63° |
| 2026-04-27 10:41 | 40.58937 | -89.56427 | 24868 ft | 217 kts | 65° |
| 2026-04-27 10:41 | 40.59554 | -89.54617 | 24868 ft | 217 kts | 65° |
| 2026-04-27 10:42 | 40.60172 | -89.52806 | 24869 ft | 217 kts | 64° |
| 2026-04-27 10:42 | 40.60793 | -89.51000 | 24869 ft | 216 kts | 64° |
| 2026-04-27 10:42 | 40.61414 | -89.49196 | 24869 ft | 216 kts | 64° |
| 2026-04-27 10:42 | 40.62034 | -89.47393 | 24869 ft | 216 kts | 64° |
| 2026-04-27 10:43 | 40.62652 | -89.45591 | 24872 ft | 216 kts | 64° |
| 2026-04-27 10:43 | 40.63270 | -89.43789 | 24872 ft | 216 kts | 64° |
| 2026-04-27 10:43 | 40.63888 | -89.41987 | 24873 ft | 216 kts | 65° |
| 2026-04-27 10:43 | 40.64506 | -89.40184 | 24872 ft | 216 kts | 65° |
| 2026-04-27 10:44 | 40.65123 | -89.38382 | 24876 ft | 216 kts | 65° |
| 2026-04-27 10:44 | 40.65740 | -89.36579 | 24877 ft | 216 kts | 65° |
| 2026-04-27 10:44 | 40.66358 | -89.34775 | 24878 ft | 216 kts | 64° |
| 2026-04-27 10:44 | 40.66974 | -89.32972 | 24879 ft | 216 kts | 64° |
| 2026-04-27 10:45 | 40.67590 | -89.31166 | 24879 ft | 216 kts | 64° |
| 2026-04-27 10:45 | 40.68205 | -89.29364 | 24880 ft | 216 kts | 64° |
| 2026-04-27 10:45 | 40.68821 | -89.27559 | 24881 ft | 216 kts | 64° |
| 2026-04-27 10:45 | 40.69435 | -89.25758 | 24883 ft | 216 kts | 65° |
| 2026-04-27 10:46 | 40.70050 | -89.23950 | 24883 ft | 216 kts | 65° |
| 2026-04-27 10:46 | 40.70664 | -89.22146 | 24886 ft | 215 kts | 65° |
| 2026-04-27 10:46 | 40.71276 | -89.20350 | 24887 ft | 215 kts | 65° |
| 2026-04-27 10:46 | 40.71876 | -89.18582 | 24961 ft | 210 kts | 66° |
| 2026-04-27 10:47 | 40.72514 | -89.16842 | 24899 ft | 210 kts | 47° |
| 2026-04-27 10:47 | 40.73467 | -89.15384 | 24898 ft | 210 kts | 44° |
| 2026-04-27 10:47 | 40.74291 | -89.13801 | 24911 ft | 212 kts | 65° |
| 2026-04-27 10:47 | 40.74820 | -89.11977 | 24902 ft | 213 kts | 70° |
| 2026-04-27 10:48 | 40.75318 | -89.10161 | 24898 ft | 213 kts | 68° |
| 2026-04-27 10:48 | 40.75893 | -89.08363 | 24897 ft | 213 kts | 65° |
| 2026-04-27 10:48 | 40.76503 | -89.06580 | 24909 ft | 213 kts | 65° |
| 2026-04-27 10:48 | 40.77107 | -89.04795 | 24915 ft | 213 kts | 65° |
| 2026-04-27 10:49 | 40.77703 | -89.03006 | 24915 ft | 213 kts | 65° |
| 2026-04-27 10:49 | 40.78299 | -89.01216 | 24916 ft | 213 kts | 65° |
| 2026-04-27 10:49 | 40.78896 | -88.99427 | 24916 ft | 213 kts | 65° |
| 2026-04-27 10:49 | 40.79492 | -88.97637 | 24919 ft | 213 kts | 65° |
| 2026-04-27 10:50 | 40.80088 | -88.95849 | 24924 ft | 213 kts | 65° |
| 2026-04-27 10:50 | 40.80684 | -88.94057 | 24925 ft | 213 kts | 65° |
| 2026-04-27 10:50 | 40.81279 | -88.92267 | 24936 ft | 213 kts | 65° |
| 2026-04-27 10:50 | 40.81874 | -88.90477 | 24938 ft | 213 kts | 65° |
| 2026-04-27 10:51 | 40.82469 | -88.88688 | 24938 ft | 213 kts | 65° |
| 2026-04-27 10:51 | 40.83064 | -88.86895 | 24941 ft | 213 kts | 65° |
| 2026-04-27 10:51 | 40.83658 | -88.85107 | 24932 ft | 213 kts | 65° |
| 2026-04-27 10:51 | 40.84251 | -88.83318 | 24933 ft | 213 kts | 65° |
| 2026-04-27 10:52 | 40.84844 | -88.81529 | 24934 ft | 212 kts | 65° |
| 2026-04-27 10:52 | 40.85435 | -88.79743 | 24936 ft | 212 kts | 65° |
| 2026-04-27 10:52 | 40.86025 | -88.77958 | 24937 ft | 212 kts | 65° |
| 2026-04-27 10:52 | 40.86616 | -88.76171 | 24940 ft | 212 kts | 65° |
| 2026-04-27 10:53 | 40.87206 | -88.74387 | 24941 ft | 212 kts | 65° |
| 2026-04-27 10:53 | 40.88386 | -88.70813 | 24942 ft | 212 kts | 65° |
| 2026-04-27 10:53 | 40.88976 | -88.69025 | 24942 ft | 212 kts | 66° |
| 2026-04-27 10:54 | 40.89565 | -88.67238 | 24942 ft | 212 kts | 65° |
| 2026-04-27 10:54 | 40.90154 | -88.65451 | 24949 ft | 212 kts | 65° |
| 2026-04-27 10:54 | 40.90742 | -88.63663 | 24949 ft | 212 kts | 66° |
| 2026-04-27 10:54 | 40.91331 | -88.61873 | 24949 ft | 212 kts | 66° |
| 2026-04-27 10:55 | 40.91919 | -88.60086 | 24951 ft | 212 kts | 66° |
| 2026-04-27 10:55 | 40.92506 | -88.58298 | 24950 ft | 212 kts | 66° |
| 2026-04-27 10:55 | 40.93093 | -88.56510 | 24950 ft | 212 kts | 66° |
| 2026-04-27 10:55 | 40.93680 | -88.54721 | 24951 ft | 212 kts | 66° |
| 2026-04-27 10:56 | 40.94267 | -88.52929 | 24950 ft | 212 kts | 66° |
| 2026-04-27 10:56 | 40.94854 | -88.51138 | 24951 ft | 212 kts | 66° |
| 2026-04-27 10:56 | 40.95441 | -88.49349 | 24950 ft | 212 kts | 66° |
| 2026-04-27 10:56 | 40.96027 | -88.47560 | 24950 ft | 212 kts | 66° |
| 2026-04-27 10:57 | 40.96611 | -88.45774 | 24949 ft | 211 kts | 66° |
| 2026-04-27 10:57 | 40.97191 | -88.43996 | 24948 ft | 210 kts | 65° |
| 2026-04-27 10:57 | 40.97771 | -88.42222 | 24947 ft | 209 kts | 65° |
| 2026-04-27 10:57 | 40.98347 | -88.40456 | 24948 ft | 209 kts | 65° |
| 2026-04-27 10:58 | 40.98923 | -88.38692 | 24948 ft | 209 kts | 65° |
| 2026-04-27 10:58 | 40.99497 | -88.36930 | 24949 ft | 208 kts | 65° |
| 2026-04-27 10:58 | 41.00071 | -88.35167 | 24950 ft | 208 kts | 66° |
| 2026-04-27 10:58 | 41.00643 | -88.33411 | 24950 ft | 208 kts | 66° |
| 2026-04-27 10:59 | 41.01209 | -88.31673 | 24957 ft | 208 kts | 66° |
| 2026-04-27 10:59 | 41.01781 | -88.29916 | 24958 ft | 208 kts | 66° |
| 2026-04-27 10:59 | 41.02352 | -88.28159 | 24958 ft | 208 kts | 66° |
| 2026-04-27 11:00 | 41.03493 | -88.24646 | 24961 ft | 207 kts | 66° |
| 2026-04-27 11:00 | 41.04064 | -88.22891 | 24961 ft | 208 kts | 66° |
| 2026-04-27 11:00 | 41.04632 | -88.21131 | 24963 ft | 208 kts | 66° |
| 2026-04-27 11:00 | 41.05201 | -88.19372 | 24964 ft | 208 kts | 66° |
| 2026-04-27 11:01 | 41.05771 | -88.17613 | 24965 ft | 208 kts | 66° |
| 2026-04-27 11:01 | 41.06339 | -88.15855 | 24978 ft | 208 kts | 66° |
| 2026-04-27 11:01 | 41.06908 | -88.14097 | 24979 ft | 208 kts | 66° |
| 2026-04-27 11:01 | 41.07477 | -88.12337 | 24982 ft | 208 kts | 66° |
| 2026-04-27 11:02 | 41.08045 | -88.10580 | 24983 ft | 207 kts | 66° |
| 2026-04-27 11:02 | 41.08612 | -88.08822 | 24981 ft | 207 kts | 66° |
| 2026-04-27 11:02 | 41.09180 | -88.07061 | 24982 ft | 208 kts | 67° |
| 2026-04-27 11:02 | 41.09748 | -88.05299 | 24982 ft | 208 kts | 67° |
| 2026-04-27 11:03 | 41.10315 | -88.03539 | 24979 ft | 208 kts | 66° |
| 2026-04-27 11:03 | 41.10881 | -88.01777 | 24980 ft | 208 kts | 66° |
| 2026-04-27 11:03 | 41.11449 | -88.00013 | 24988 ft | 208 kts | 66° |
| 2026-04-27 11:03 | 41.12017 | -87.98245 | 24991 ft | 209 kts | 66° |
| 2026-04-27 11:04 | 41.12587 | -87.96472 | 24991 ft | 209 kts | 66° |
| 2026-04-27 11:04 | 41.13157 | -87.94695 | 24991 ft | 210 kts | 66° |
| 2026-04-27 11:04 | 41.13729 | -87.92913 | 24992 ft | 210 kts | 66° |
| 2026-04-27 11:04 | 41.14301 | -87.91131 | 24991 ft | 210 kts | 66° |
| 2026-04-27 11:05 | 41.14873 | -87.89345 | 24991 ft | 210 kts | 66° |
| 2026-04-27 11:05 | 41.15445 | -87.87558 | 24991 ft | 211 kts | 66° |
| 2026-04-27 11:05 | 41.16017 | -87.85771 | 24991 ft | 210 kts | 66° |
| 2026-04-27 11:05 | 41.16589 | -87.83980 | 24991 ft | 211 kts | 66° |
| 2026-04-27 11:06 | 41.17160 | -87.82192 | 24992 ft | 210 kts | 66° |
| 2026-04-27 11:06 | 41.17731 | -87.80404 | 24992 ft | 210 kts | 66° |
| 2026-04-27 11:06 | 41.18302 | -87.78616 | 24993 ft | 210 kts | 66° |
| 2026-04-27 11:06 | 41.18872 | -87.76828 | 24993 ft | 210 kts | 66° |
| 2026-04-27 11:07 | 41.19442 | -87.75041 | 24991 ft | 210 kts | 66° |
| 2026-04-27 11:07 | 41.20013 | -87.73250 | 24992 ft | 210 kts | 66° |
| 2026-04-27 11:07 | 41.20624 | -87.71487 | 24991 ft | 210 kts | 63° |
| 2026-04-27 11:07 | 41.21235 | -87.69722 | 24996 ft | 210 kts | 62° |
| 2026-04-27 11:08 | 41.21838 | -87.67953 | 24999 ft | 210 kts | 62° |
| 2026-04-27 11:08 | 41.22443 | -87.66211 | 25000 ft | 210 kts | 62° |
| 2026-04-27 11:08 | 41.23066 | -87.64423 | 25000 ft | 211 kts | 62° |
| 2026-04-27 11:08 | 41.23673 | -87.62681 | 25000 ft | 211 kts | 62° |
| 2026-04-27 11:09 | 41.24287 | -87.60913 | 24999 ft | 211 kts | 62° |
| 2026-04-27 11:09 | 41.24901 | -87.59147 | 25001 ft | 211 kts | 62° |
| 2026-04-27 11:09 | 41.25514 | -87.57381 | 25001 ft | 211 kts | 62° |
| 2026-04-27 11:09 | 41.26127 | -87.55612 | 25009 ft | 211 kts | 62° |
| 2026-04-27 11:10 | 41.26739 | -87.53846 | 25011 ft | 211 kts | 62° |
| 2026-04-27 11:10 | 41.27351 | -87.52078 | 25012 ft | 211 kts | 62° |
| 2026-04-27 11:10 | 41.27963 | -87.50310 | 25014 ft | 211 kts | 62° |
| 2026-04-27 11:10 | 41.28575 | -87.48540 | 25016 ft | 211 kts | 62° |
| 2026-04-27 11:11 | 41.29187 | -87.46771 | 25019 ft | 211 kts | 63° |
| 2026-04-27 11:11 | 41.29799 | -87.45002 | 25019 ft | 210 kts | 63° |
| 2026-04-27 11:11 | 41.30411 | -87.43231 | 25019 ft | 210 kts | 63° |
| 2026-04-27 11:11 | 41.31020 | -87.41465 | 25021 ft | 210 kts | 63° |
| 2026-04-27 11:12 | 41.31630 | -87.39696 | 25018 ft | 210 kts | 63° |
| 2026-04-27 11:12 | 41.32242 | -87.37923 | 25018 ft | 211 kts | 62° |
| 2026-04-27 11:12 | 41.32855 | -87.36141 | 25018 ft | 212 kts | 62° |
| 2026-04-27 11:12 | 41.33469 | -87.34356 | 25019 ft | 212 kts | 62° |
| 2026-04-27 11:13 | 41.34084 | -87.32568 | 25011 ft | 212 kts | 62° |
| 2026-04-27 11:13 | 41.34698 | -87.30783 | 25012 ft | 212 kts | 61° |
| 2026-04-27 11:13 | 41.35310 | -87.29000 | 25012 ft | 212 kts | 61° |
| 2026-04-27 11:13 | 41.35923 | -87.27215 | 25011 ft | 212 kts | 62° |
| 2026-04-27 11:14 | 41.36535 | -87.25434 | 25011 ft | 212 kts | 62° |
| 2026-04-27 11:14 | 41.37145 | -87.23653 | 25017 ft | 212 kts | 62° |
| 2026-04-27 11:14 | 41.37756 | -87.21871 | 25016 ft | 212 kts | 62° |
| 2026-04-27 11:14 | 41.38367 | -87.20088 | 25016 ft | 212 kts | 61° |
| 2026-04-27 11:15 | 41.38976 | -87.18306 | 25014 ft | 211 kts | 61° |
| 2026-04-27 11:15 | 41.39585 | -87.16525 | 25014 ft | 211 kts | 61° |
| 2026-04-27 11:15 | 41.40194 | -87.14743 | 25015 ft | 211 kts | 62° |
| 2026-04-27 11:15 | 41.40803 | -87.12962 | 25015 ft | 211 kts | 62° |
| 2026-04-27 11:16 | 41.41411 | -87.11181 | 25017 ft | 211 kts | 62° |
| 2026-04-27 11:16 | 41.42019 | -87.09399 | 25024 ft | 211 kts | 62° |
| 2026-04-27 11:16 | 41.42627 | -87.07616 | 25024 ft | 211 kts | 62° |
| 2026-04-27 11:16 | 41.43233 | -87.05837 | 25023 ft | 211 kts | 62° |
| 2026-04-27 11:17 | 41.43833 | -87.04077 | 25022 ft | 211 kts | 62° |
| 2026-04-27 11:17 | 41.44447 | -87.02272 | 25022 ft | 211 kts | 62° |
| 2026-04-27 11:17 | 41.45053 | -87.00489 | 25021 ft | 211 kts | 62° |
| 2026-04-27 11:17 | 41.45658 | -86.98708 | 25021 ft | 211 kts | 62° |
| 2026-04-27 11:18 | 41.46263 | -86.96926 | 25018 ft | 211 kts | 62° |
| 2026-04-27 11:18 | 41.46859 | -86.95171 | 25018 ft | 211 kts | 62° |
| 2026-04-27 11:18 | 41.47462 | -86.93392 | 25020 ft | 210 kts | 62° |
| 2026-04-27 11:18 | 41.48061 | -86.91624 | 25017 ft | 209 kts | 62° |
| 2026-04-27 11:19 | 41.48658 | -86.89863 | 25017 ft | 208 kts | 62° |
| 2026-04-27 11:19 | 41.49253 | -86.88106 | 25015 ft | 208 kts | 62° |
| 2026-04-27 11:19 | 41.49846 | -86.86355 | 25014 ft | 207 kts | 62° |
| 2026-04-27 11:19 | 41.50439 | -86.84602 | 25012 ft | 207 kts | 62° |
| 2026-04-27 11:20 | 41.51027 | -86.82849 | 25010 ft | 207 kts | 63° |
| 2026-04-27 11:20 | 41.51616 | -86.81101 | 25011 ft | 207 kts | 63° |
| 2026-04-27 11:20 | 41.52208 | -86.79357 | 25023 ft | 207 kts | 62° |
| 2026-04-27 11:20 | 41.52800 | -86.77607 | 25023 ft | 207 kts | 63° |
| 2026-04-27 11:21 | 41.53391 | -86.75853 | 25021 ft | 207 kts | 63° |
| 2026-04-27 11:21 | 41.53981 | -86.74100 | 25021 ft | 207 kts | 63° |
| 2026-04-27 11:21 | 41.54573 | -86.72344 | 25021 ft | 207 kts | 63° |
| 2026-04-27 11:21 | 41.55163 | -86.70589 | 25021 ft | 207 kts | 63° |
| 2026-04-27 11:22 | 41.55753 | -86.68834 | 25021 ft | 207 kts | 63° |
| 2026-04-27 11:22 | 41.56344 | -86.67078 | 25021 ft | 207 kts | 63° |
| 2026-04-27 11:22 | 41.56933 | -86.65322 | 25021 ft | 207 kts | 63° |
| 2026-04-27 11:22 | 41.57523 | -86.63565 | 25021 ft | 207 kts | 63° |
| 2026-04-27 11:23 | 41.58113 | -86.61805 | 25023 ft | 207 kts | 63° |
| 2026-04-27 11:23 | 41.58701 | -86.60049 | 25026 ft | 207 kts | 63° |
| 2026-04-27 11:23 | 41.59291 | -86.58289 | 25029 ft | 207 kts | 63° |
| 2026-04-27 11:23 | 41.59879 | -86.56529 | 25027 ft | 208 kts | 62° |
| 2026-04-27 11:24 | 41.60468 | -86.54770 | 25027 ft | 207 kts | 63° |
| 2026-04-27 11:24 | 41.61057 | -86.53009 | 25030 ft | 207 kts | 63° |
| 2026-04-27 11:24 | 41.61646 | -86.51246 | 25033 ft | 207 kts | 63° |
| 2026-04-27 11:24 | 41.62233 | -86.49488 | 25050 ft | 207 kts | 63° |
| 2026-04-27 11:25 | 41.62820 | -86.47729 | 25054 ft | 207 kts | 63° |
| 2026-04-27 11:25 | 41.63407 | -86.45968 | 25052 ft | 207 kts | 63° |
| 2026-04-27 11:25 | 41.63992 | -86.44214 | 25051 ft | 207 kts | 63° |
| 2026-04-27 11:25 | 41.64578 | -86.42453 | 25048 ft | 207 kts | 63° |
| 2026-04-27 11:26 | 41.65163 | -86.40693 | 25047 ft | 207 kts | 63° |
| 2026-04-27 11:26 | 41.65748 | -86.38934 | 25047 ft | 207 kts | 63° |
| 2026-04-27 11:26 | 41.66333 | -86.37175 | 25046 ft | 207 kts | 63° |
| 2026-04-27 11:26 | 41.66918 | -86.35414 | 25047 ft | 207 kts | 63° |
| 2026-04-27 11:27 | 41.67503 | -86.33653 | 25045 ft | 207 kts | 63° |
| 2026-04-27 11:27 | 41.68087 | -86.31891 | 25045 ft | 207 kts | 63° |
| 2026-04-27 11:27 | 41.68670 | -86.30134 | 25045 ft | 207 kts | 63° |
| 2026-04-27 11:27 | 41.69254 | -86.28372 | 25044 ft | 207 kts | 63° |
| 2026-04-27 11:28 | 41.69639 | -86.27207 | 25045 ft | 207 kts | 63° |
| 2026-04-27 11:28 | 41.70222 | -86.25447 | 25045 ft | 207 kts | 63° |
| 2026-04-27 11:28 | 41.70805 | -86.23685 | 25088 ft | 207 kts | 63° |
| 2026-04-27 11:28 | 41.71387 | -86.21922 | 25106 ft | 207 kts | 64° |
| 2026-04-27 11:29 | 41.71971 | -86.20157 | 25096 ft | 208 kts | 64° |
| 2026-04-27 11:29 | 41.72556 | -86.18383 | 25092 ft | 208 kts | 64° |
| 2026-04-27 11:29 | 41.73138 | -86.16617 | 25091 ft | 207 kts | 64° |
| 2026-04-27 11:29 | 41.73720 | -86.14852 | 25091 ft | 207 kts | 64° |
| 2026-04-27 11:30 | 41.74301 | -86.13089 | 25086 ft | 207 kts | 64° |
| 2026-04-27 11:30 | 41.74881 | -86.11326 | 25086 ft | 207 kts | 65° |
| 2026-04-27 11:30 | 41.75462 | -86.09562 | 25086 ft | 207 kts | 65° |
| 2026-04-27 11:30 | 41.76042 | -86.07799 | 25087 ft | 207 kts | 65° |
| 2026-04-27 11:31 | 41.76621 | -86.06036 | 25086 ft | 207 kts | 65° |
| 2026-04-27 11:31 | 41.77200 | -86.04274 | 25086 ft | 207 kts | 65° |
| 2026-04-27 11:31 | 41.77779 | -86.02511 | 25086 ft | 207 kts | 65° |
| 2026-04-27 11:31 | 41.78356 | -86.00749 | 25086 ft | 207 kts | 65° |
| 2026-04-27 11:32 | 41.78935 | -85.98984 | 25090 ft | 207 kts | 65° |
| 2026-04-27 11:32 | 41.79511 | -85.97222 | 25089 ft | 207 kts | 65° |
| 2026-04-27 11:32 | 41.80089 | -85.95457 | 25090 ft | 207 kts | 65° |
| 2026-04-27 11:32 | 41.80666 | -85.93694 | 25091 ft | 207 kts | 65° |
| 2026-04-27 11:33 | 41.81243 | -85.91927 | 25090 ft | 207 kts | 65° |
| 2026-04-27 11:33 | 41.81820 | -85.90164 | 25090 ft | 207 kts | 65° |
| 2026-04-27 11:33 | 41.82396 | -85.88400 | 25090 ft | 207 kts | 65° |
| 2026-04-27 11:33 | 41.82971 | -85.86637 | 25093 ft | 207 kts | 65° |
| 2026-04-27 11:34 | 41.83547 | -85.84873 | 25096 ft | 207 kts | 65° |
| 2026-04-27 11:34 | 41.84123 | -85.83105 | 25094 ft | 207 kts | 65° |
| 2026-04-27 11:34 | 41.84697 | -85.81342 | 25095 ft | 207 kts | 65° |
| 2026-04-27 11:34 | 41.85271 | -85.79577 | 25078 ft | 206 kts | 65° |
| 2026-04-27 11:35 | 41.85846 | -85.77809 | 25078 ft | 206 kts | 65° |
| 2026-04-27 11:35 | 41.86410 | -85.76071 | 25076 ft | 206 kts | 65° |
| 2026-04-27 11:35 | 41.86991 | -85.74283 | 25075 ft | 206 kts | 65° |
| 2026-04-27 11:35 | 41.87556 | -85.72544 | 25074 ft | 206 kts | 65° |
| 2026-04-27 11:36 | 41.88128 | -85.70780 | 25073 ft | 206 kts | 65° |
| 2026-04-27 11:36 | 41.88701 | -85.69013 | 25071 ft | 206 kts | 65° |
| 2026-04-27 11:36 | 41.89273 | -85.67248 | 25070 ft | 206 kts | 65° |
| 2026-04-27 11:36 | 41.89844 | -85.65485 | 25070 ft | 206 kts | 65° |
| 2026-04-27 11:37 | 41.90415 | -85.63719 | 25070 ft | 206 kts | 65° |
| 2026-04-27 11:37 | 41.90986 | -85.61952 | 25079 ft | 206 kts | 65° |
| 2026-04-27 11:37 | 41.91558 | -85.60182 | 25079 ft | 207 kts | 65° |
| 2026-04-27 11:37 | 41.92131 | -85.58407 | 25079 ft | 207 kts | 65° |
| 2026-04-27 11:38 | 41.92704 | -85.56631 | 25080 ft | 207 kts | 65° |
| 2026-04-27 11:38 | 41.93277 | -85.54854 | 25080 ft | 207 kts | 66° |
| 2026-04-27 11:38 | 41.93850 | -85.53076 | 25080 ft | 208 kts | 66° |
| 2026-04-27 11:38 | 41.94424 | -85.51297 | 25080 ft | 208 kts | 66° |
| 2026-04-27 11:39 | 41.94997 | -85.49517 | 25082 ft | 208 kts | 66° |
| 2026-04-27 11:39 | 41.95569 | -85.47736 | 25083 ft | 208 kts | 66° |
| 2026-04-27 11:39 | 41.96141 | -85.45956 | 25084 ft | 208 kts | 65° |
| 2026-04-27 11:39 | 41.96714 | -85.44172 | 25085 ft | 208 kts | 65° |
| 2026-04-27 11:40 | 41.97286 | -85.42391 | 25079 ft | 208 kts | 66° |
| 2026-04-27 11:40 | 41.97858 | -85.40609 | 25082 ft | 208 kts | 66° |
| 2026-04-27 11:40 | 41.98430 | -85.38822 | 25084 ft | 208 kts | 66° |
| 2026-04-27 11:40 | 41.99004 | -85.37030 | 25086 ft | 209 kts | 66° |
| 2026-04-27 11:41 | 41.99578 | -85.35239 | 25088 ft | 209 kts | 67° |
| 2026-04-27 11:41 | 42.00152 | -85.33445 | 25091 ft | 209 kts | 67° |
| 2026-04-27 11:41 | 42.00726 | -85.31650 | 25093 ft | 209 kts | 67° |
| 2026-04-27 11:41 | 42.01300 | -85.29852 | 25108 ft | 209 kts | 67° |
| 2026-04-27 11:42 | 42.01874 | -85.28055 | 25108 ft | 209 kts | 67° |
| 2026-04-27 11:42 | 42.02448 | -85.26256 | 25103 ft | 209 kts | 67° |
| 2026-04-27 11:42 | 42.03014 | -85.24481 | 25103 ft | 209 kts | 67° |
| 2026-04-27 11:42 | 42.03587 | -85.22682 | 25102 ft | 209 kts | 66° |
| 2026-04-27 11:43 | 42.04159 | -85.20884 | 25100 ft | 209 kts | 66° |
| 2026-04-27 11:43 | 42.04732 | -85.19084 | 25099 ft | 209 kts | 66° |
| 2026-04-27 11:43 | 42.05305 | -85.17282 | 25099 ft | 209 kts | 67° |
| 2026-04-27 11:43 | 42.05877 | -85.15481 | 25099 ft | 209 kts | 67° |
| 2026-04-27 11:44 | 42.06450 | -85.13680 | 25100 ft | 209 kts | 67° |
| 2026-04-27 11:44 | 42.07021 | -85.11879 | 25101 ft | 209 kts | 67° |
| 2026-04-27 11:44 | 42.07593 | -85.10077 | 25102 ft | 210 kts | 67° |
| 2026-04-27 11:44 | 42.08165 | -85.08273 | 25103 ft | 210 kts | 67° |
| 2026-04-27 11:45 | 42.08737 | -85.06467 | 25104 ft | 209 kts | 67° |
| 2026-04-27 11:45 | 42.09123 | -85.05247 | 25110 ft | 209 kts | 67° |
| 2026-04-27 11:45 | 42.09879 | -85.02856 | 25099 ft | 210 kts | 68° |
| 2026-04-27 11:45 | 42.10450 | -85.01049 | 25100 ft | 210 kts | 68° |
| 2026-04-27 11:46 | 42.11021 | -84.99242 | 25101 ft | 210 kts | 68° |
| 2026-04-27 11:46 | 42.11591 | -84.97435 | 25103 ft | 210 kts | 68° |
| 2026-04-27 11:46 | 42.12161 | -84.95628 | 25105 ft | 210 kts | 68° |
| 2026-04-27 11:46 | 42.12731 | -84.93821 | 25107 ft | 210 kts | 68° |
| 2026-04-27 11:47 | 42.13301 | -84.92013 | 25110 ft | 210 kts | 68° |
| 2026-04-27 11:47 | 42.13870 | -84.90206 | 25111 ft | 210 kts | 68° |
| 2026-04-27 11:47 | 42.14439 | -84.88397 | 25113 ft | 210 kts | 68° |
| 2026-04-27 11:47 | 42.15008 | -84.86588 | 25114 ft | 210 kts | 68° |
| 2026-04-27 11:48 | 42.15576 | -84.84778 | 25116 ft | 210 kts | 68° |
| 2026-04-27 11:48 | 42.16144 | -84.82967 | 25117 ft | 210 kts | 68° |
| 2026-04-27 11:48 | 42.16712 | -84.81156 | 25124 ft | 210 kts | 68° |
| 2026-04-27 11:48 | 42.17281 | -84.79343 | 25130 ft | 210 kts | 68° |
| 2026-04-27 11:49 | 42.17849 | -84.77531 | 25130 ft | 210 kts | 68° |
| 2026-04-27 11:49 | 42.18416 | -84.75719 | 25131 ft | 210 kts | 68° |
| 2026-04-27 11:49 | 42.18983 | -84.73908 | 25111 ft | 210 kts | 68° |
| 2026-04-27 11:49 | 42.19550 | -84.72093 | 25114 ft | 210 kts | 68° |
| 2026-04-27 11:50 | 42.20117 | -84.70279 | 25143 ft | 210 kts | 68° |
| 2026-04-27 11:50 | 42.20684 | -84.68463 | 25143 ft | 210 kts | 68° |
| 2026-04-27 11:50 | 42.21251 | -84.66647 | 25141 ft | 210 kts | 68° |
| 2026-04-27 11:50 | 42.21814 | -84.64839 | 25142 ft | 209 kts | 68° |
| 2026-04-27 11:51 | 42.22377 | -84.63034 | 25143 ft | 208 kts | 68° |
| 2026-04-27 11:51 | 42.22937 | -84.61234 | 25143 ft | 208 kts | 68° |
| 2026-04-27 11:51 | 42.24054 | -84.57643 | 25143 ft | 207 kts | 68° |
| 2026-04-27 11:52 | 42.24612 | -84.55846 | 25143 ft | 207 kts | 68° |
| 2026-04-27 11:52 | 42.25170 | -84.54052 | 25143 ft | 207 kts | 68° |
| 2026-04-27 11:52 | 42.25726 | -84.52259 | 25143 ft | 207 kts | 68° |
| 2026-04-27 11:52 | 42.26275 | -84.50490 | 25144 ft | 207 kts | 68° |
| 2026-04-27 11:53 | 42.26830 | -84.48699 | 25142 ft | 207 kts | 68° |
| 2026-04-27 11:53 | 42.27386 | -84.46906 | 25151 ft | 207 kts | 68° |
| 2026-04-27 11:53 | 42.27939 | -84.45116 | 25151 ft | 206 kts | 68° |
| 2026-04-27 11:53 | 42.28491 | -84.43331 | 25152 ft | 206 kts | 68° |
| 2026-04-27 11:54 | 42.29042 | -84.41549 | 25152 ft | 206 kts | 68° |
| 2026-04-27 11:54 | 42.29592 | -84.39766 | 25152 ft | 205 kts | 68° |
| 2026-04-27 11:54 | 42.30142 | -84.37986 | 25151 ft | 205 kts | 69° |
| 2026-04-27 11:54 | 42.30691 | -84.36205 | 25156 ft | 205 kts | 69° |
| 2026-04-27 11:55 | 42.31240 | -84.34425 | 25157 ft | 205 kts | 69° |
| 2026-04-27 11:55 | 42.31789 | -84.32645 | 25157 ft | 205 kts | 69° |
| 2026-04-27 11:55 | 42.32337 | -84.30863 | 25157 ft | 205 kts | 69° |
| 2026-04-27 11:55 | 42.32885 | -84.29083 | 25157 ft | 205 kts | 69° |
| 2026-04-27 11:56 | 42.33432 | -84.27303 | 25151 ft | 205 kts | 68° |
| 2026-04-27 11:56 | 42.33978 | -84.25528 | 25151 ft | 205 kts | 68° |
| 2026-04-27 11:56 | 42.34522 | -84.23753 | 25150 ft | 204 kts | 68° |
| 2026-04-27 11:56 | 42.35067 | -84.21975 | 25150 ft | 204 kts | 68° |
| 2026-04-27 11:57 | 42.35611 | -84.20202 | 25155 ft | 204 kts | 69° |
| 2026-04-27 11:57 | 42.36155 | -84.18426 | 25156 ft | 204 kts | 69° |
| 2026-04-27 11:57 | 42.36699 | -84.16651 | 25155 ft | 204 kts | 69° |
| 2026-04-27 11:57 | 42.37242 | -84.14876 | 25154 ft | 204 kts | 69° |
| 2026-04-27 11:58 | 42.37786 | -84.13098 | 25153 ft | 204 kts | 69° |
| 2026-04-27 11:58 | 42.38329 | -84.11319 | 25154 ft | 205 kts | 69° |
| 2026-04-27 11:58 | 42.38872 | -84.09541 | 25154 ft | 205 kts | 69° |
| 2026-04-27 11:58 | 42.39415 | -84.07762 | 25153 ft | 205 kts | 69° |
| 2026-04-27 11:59 | 42.39958 | -84.05981 | 25155 ft | 204 kts | 69° |
| 2026-04-27 11:59 | 42.40498 | -84.04206 | 25157 ft | 205 kts | 69° |
| 2026-04-27 11:59 | 42.41042 | -84.02422 | 25155 ft | 205 kts | 69° |
| 2026-04-27 11:59 | 42.41582 | -84.00644 | 25155 ft | 204 kts | 69° |
| 2026-04-27 12:00 | 42.42124 | -83.98863 | 25152 ft | 205 kts | 69° |
| 2026-04-27 12:00 | 42.42666 | -83.97081 | 25152 ft | 205 kts | 69° |
| 2026-04-27 12:00 | 42.43207 | -83.95301 | 25152 ft | 205 kts | 69° |
| 2026-04-27 12:00 | 42.43748 | -83.93517 | 25152 ft | 205 kts | 69° |
| 2026-04-27 12:01 | 42.44289 | -83.91734 | 25155 ft | 205 kts | 69° |
| 2026-04-27 12:01 | 42.44829 | -83.89952 | 25155 ft | 204 kts | 69° |
| 2026-04-27 12:01 | 42.45367 | -83.88175 | 25162 ft | 204 kts | 68° |
| 2026-04-27 12:01 | 42.45903 | -83.86402 | 25162 ft | 204 kts | 68° |
| 2026-04-27 12:02 | 42.46440 | -83.84628 | 25162 ft | 203 kts | 68° |
| 2026-04-27 12:02 | 42.46975 | -83.82857 | 25162 ft | 203 kts | 69° |
| 2026-04-27 12:02 | 42.47511 | -83.81081 | 25163 ft | 203 kts | 69° |
| 2026-04-27 12:02 | 42.48045 | -83.79311 | 25163 ft | 203 kts | 69° |
| 2026-04-27 12:03 | 42.48580 | -83.77540 | 25161 ft | 203 kts | 69° |
| 2026-04-27 12:03 | 42.49115 | -83.75763 | 25163 ft | 203 kts | 69° |
| 2026-04-27 12:03 | 42.49649 | -83.73992 | 25164 ft | 203 kts | 69° |
| 2026-04-27 12:03 | 42.50184 | -83.72216 | 25164 ft | 203 kts | 69° |
| 2026-04-27 12:04 | 42.50718 | -83.70439 | 25167 ft | 203 kts | 69° |
| 2026-04-27 12:04 | 42.51252 | -83.68663 | 25168 ft | 203 kts | 69° |
| 2026-04-27 12:04 | 42.51778 | -83.66912 | 25169 ft | 203 kts | 69° |
| 2026-04-27 12:04 | 42.52310 | -83.65137 | 25171 ft | 203 kts | 69° |
| 2026-04-27 12:05 | 42.52843 | -83.63361 | 25171 ft | 203 kts | 69° |
| 2026-04-27 12:05 | 42.53376 | -83.61584 | 25172 ft | 204 kts | 69° |
| 2026-04-27 12:05 | 42.53909 | -83.59806 | 25177 ft | 204 kts | 69° |
| 2026-04-27 12:05 | 42.54415 | -83.58113 | 25181 ft | 204 kts | 69° |
| 2026-04-27 12:06 | 42.54948 | -83.56333 | 25184 ft | 204 kts | 69° |
| 2026-04-27 12:06 | 42.55481 | -83.54552 | 25184 ft | 204 kts | 69° |
| 2026-04-27 12:06 | 42.56013 | -83.52769 | 25182 ft | 204 kts | 68° |
| 2026-04-27 12:06 | 42.56544 | -83.50991 | 25181 ft | 203 kts | 68° |
| 2026-04-27 12:07 | 42.57072 | -83.49219 | 25181 ft | 202 kts | 68° |
| 2026-04-27 12:07 | 42.57600 | -83.47450 | 25181 ft | 202 kts | 68° |
| 2026-04-27 12:07 | 42.58126 | -83.45685 | 25183 ft | 202 kts | 68° |
| 2026-04-27 12:07 | 42.58650 | -83.43922 | 25183 ft | 201 kts | 68° |
| 2026-04-27 12:08 | 42.59175 | -83.42160 | 25177 ft | 201 kts | 68° |
| 2026-04-27 12:08 | 42.59698 | -83.40399 | 25177 ft | 201 kts | 69° |
| 2026-04-27 12:08 | 42.60222 | -83.38639 | 25170 ft | 201 kts | 69° |
| 2026-04-27 12:08 | 42.60744 | -83.36876 | 25172 ft | 201 kts | 69° |
| 2026-04-27 12:09 | 42.61267 | -83.35116 | 25175 ft | 201 kts | 68° |
| 2026-04-27 12:09 | 42.61789 | -83.33357 | 25174 ft | 201 kts | 68° |
| 2026-04-27 12:09 | 42.62311 | -83.31594 | 25175 ft | 201 kts | 68° |
| 2026-04-27 12:09 | 42.62833 | -83.29831 | 25175 ft | 201 kts | 68° |
| 2026-04-27 12:10 | 42.63354 | -83.28069 | 25172 ft | 201 kts | 68° |
| 2026-04-27 12:10 | 42.63875 | -83.26306 | 25180 ft | 201 kts | 68° |
| 2026-04-27 12:10 | 42.64397 | -83.24540 | 25183 ft | 201 kts | 68° |
| 2026-04-27 12:10 | 42.64919 | -83.22774 | 25182 ft | 201 kts | 69° |
| 2026-04-27 12:11 | 42.65433 | -83.21032 | 25182 ft | 202 kts | 69° |
| 2026-04-27 12:11 | 42.65961 | -83.19242 | 25182 ft | 202 kts | 69° |
| 2026-04-27 12:11 | 42.66475 | -83.17498 | 25181 ft | 201 kts | 69° |
| 2026-04-27 12:11 | 42.66996 | -83.15730 | 25180 ft | 201 kts | 69° |
| 2026-04-27 12:12 | 42.67514 | -83.13967 | 25175 ft | 201 kts | 68° |
| 2026-04-27 12:12 | 42.68032 | -83.12206 | 25175 ft | 201 kts | 68° |
| 2026-04-27 12:12 | 42.68549 | -83.10447 | 25175 ft | 200 kts | 68° |
| 2026-04-27 12:12 | 42.69065 | -83.08691 | 25175 ft | 201 kts | 68° |
| 2026-04-27 12:13 | 42.69581 | -83.06931 | 25174 ft | 200 kts | 68° |
| 2026-04-27 12:13 | 42.70097 | -83.05171 | 25161 ft | 200 kts | 67° |
| 2026-04-27 12:13 | 42.70612 | -83.03413 | 25161 ft | 200 kts | 67° |
| 2026-04-27 12:13 | 42.71122 | -83.01647 | 25162 ft | 200 kts | 71° |
| 2026-04-27 12:14 | 42.71556 | -82.99852 | 25163 ft | 200 kts | 71° |
| 2026-04-27 12:14 | 42.72017 | -82.98065 | 25163 ft | 200 kts | 70° |
| 2026-04-27 12:14 | 42.72473 | -82.96276 | 25163 ft | 200 kts | 71° |
| 2026-04-27 12:14 | 42.72923 | -82.94481 | 25162 ft | 200 kts | 71° |
| 2026-04-27 12:15 | 42.73371 | -82.92689 | 25163 ft | 200 kts | 71° |
| 2026-04-27 12:15 | 42.73820 | -82.90898 | 25163 ft | 200 kts | 71° |
| 2026-04-27 12:15 | 42.74118 | -82.89711 | 25163 ft | 200 kts | 71° |
| 2026-04-27 12:15 | 42.74566 | -82.87919 | 25163 ft | 200 kts | 71° |
| 2026-04-27 12:16 | 42.75015 | -82.86126 | 25163 ft | 200 kts | 71° |
| 2026-04-27 12:16 | 42.75464 | -82.84331 | 25165 ft | 201 kts | 71° |
| 2026-04-27 12:16 | 42.75912 | -82.82536 | 25165 ft | 200 kts | 71° |
| 2026-04-27 12:16 | 42.76360 | -82.80738 | 25166 ft | 200 kts | 71° |
| 2026-04-27 12:17 | 42.76810 | -82.78939 | 25075 ft | 205 kts | 71° |
| 2026-04-27 12:17 | 42.77277 | -82.77060 | 24797 ft | 212 kts | 70° |
| 2026-04-27 12:17 | 42.77754 | -82.75139 | 24521 ft | 216 kts | 71° |
| 2026-04-27 12:17 | 42.78238 | -82.73190 | 24247 ft | 219 kts | 71° |
| 2026-04-27 12:18 | 42.78728 | -82.71222 | 23981 ft | 220 kts | 71° |
| 2026-04-27 12:18 | 42.79220 | -82.69242 | 23706 ft | 221 kts | 71° |
| 2026-04-27 12:18 | 42.79712 | -82.67257 | 23354 ft | 221 kts | 71° |
| 2026-04-27 12:18 | 42.80203 | -82.65277 | 23004 ft | 220 kts | 71° |
| 2026-04-27 12:19 | 42.80691 | -82.63302 | 22658 ft | 220 kts | 71° |
| 2026-04-27 12:19 | 42.81179 | -82.61331 | 22318 ft | 219 kts | 71° |
| 2026-04-27 12:19 | 42.81664 | -82.59373 | 21982 ft | 218 kts | 71° |
| 2026-04-27 12:19 | 42.82144 | -82.57428 | 21649 ft | 216 kts | 71° |
| 2026-04-27 12:20 | 42.82623 | -82.55489 | 21325 ft | 215 kts | 71° |
| 2026-04-27 12:20 | 42.83100 | -82.53557 | 20998 ft | 215 kts | 71° |
| 2026-04-27 12:20 | 42.83574 | -82.51633 | 20679 ft | 214 kts | 71° |
| 2026-04-27 12:20 | 42.84046 | -82.49717 | 20365 ft | 213 kts | 72° |
| 2026-04-27 12:21 | 42.84517 | -82.47803 | 20047 ft | 213 kts | 72° |
| 2026-04-27 12:21 | 42.84986 | -82.45897 | 19728 ft | 210 kts | 72° |
| 2026-04-27 12:21 | 42.85077 | -82.45525 | 19673 ft | 209 kts | 72° |
| 2026-04-27 12:21 | 42.85145 | -82.45248 | 19626 ft | 209 kts | 72° |
| 2026-04-27 12:22 | 42.85601 | -82.43388 | 19319 ft | 205 kts | 72° |
| 2026-04-27 12:22 | 42.86052 | -82.41555 | 19027 ft | 203 kts | 72° |
| 2026-04-27 12:22 | 42.86497 | -82.39739 | 18722 ft | 201 kts | 71° |
| 2026-04-27 12:22 | 42.86938 | -82.37938 | 18400 ft | 199 kts | 71° |
| 2026-04-27 12:23 | 42.87376 | -82.36151 | 18045 ft | 198 kts | 71° |
| 2026-04-27 12:23 | 42.87810 | -82.34374 | 17708 ft | 197 kts | 71° |
| 2026-04-27 12:23 | 42.88243 | -82.32604 | 17366 ft | 196 kts | 71° |
| 2026-04-27 12:23 | 42.88669 | -82.30864 | 17036 ft | 196 kts | 71° |
| 2026-04-27 12:24 | 42.89097 | -82.29108 | 16687 ft | 195 kts | 71° |
| 2026-04-27 12:24 | 42.89525 | -82.27356 | 16358 ft | 194 kts | 71° |
| 2026-04-27 12:24 | 42.89949 | -82.25611 | 16031 ft | 194 kts | 71° |
| 2026-04-27 12:24 | 42.90372 | -82.23873 | 15709 ft | 192 kts | 70° |
| 2026-04-27 12:25 | 42.90793 | -82.22143 | 15391 ft | 192 kts | 70° |
| 2026-04-27 12:25 | 42.91212 | -82.20423 | 15075 ft | 191 kts | 70° |
| 2026-04-27 12:25 | 42.91630 | -82.18704 | 14761 ft | 190 kts | 70° |
| 2026-04-27 12:25 | 42.92045 | -82.16996 | 14454 ft | 190 kts | 70° |
| 2026-04-27 12:26 | 42.92458 | -82.15289 | 14146 ft | 188 kts | 70° |
| 2026-04-27 12:26 | 42.92865 | -82.13609 | 13849 ft | 184 kts | 70° |
| 2026-04-27 12:26 | 42.93260 | -82.11975 | 13587 ft | 179 kts | 70° |
| 2026-04-27 12:26 | 42.93647 | -82.10380 | 13325 ft | 176 kts | 70° |
| 2026-04-27 12:27 | 42.94028 | -82.08809 | 13066 ft | 173 kts | 70° |
| 2026-04-27 12:27 | 42.94403 | -82.07257 | 12809 ft | 171 kts | 69° |
| 2026-04-27 12:27 | 42.94775 | -82.05719 | 12555 ft | 170 kts | 69° |
| 2026-04-27 12:27 | 42.95144 | -82.04188 | 12303 ft | 169 kts | 69° |
| 2026-04-27 12:28 | 42.95512 | -82.02666 | 12053 ft | 169 kts | 69° |
| 2026-04-27 12:28 | 42.95876 | -82.01152 | 11805 ft | 167 kts | 70° |
| 2026-04-27 12:28 | 42.96240 | -81.99646 | 11559 ft | 167 kts | 68° |
| 2026-04-27 12:28 | 42.96601 | -81.98150 | 11314 ft | 166 kts | 69° |
| 2026-04-27 12:29 | 42.96959 | -81.96662 | 11079 ft | 165 kts | 69° |
| 2026-04-27 12:29 | 42.97315 | -81.95182 | 10894 ft | 164 kts | 68° |
| 2026-04-27 12:29 | 42.97673 | -81.93697 | 10701 ft | 165 kts | 70° |
| 2026-04-27 12:29 | 42.98026 | -81.92217 | 10524 ft | 166 kts | 68° |
| 2026-04-27 12:30 | 42.98387 | -81.90716 | 10330 ft | 166 kts | 69° |
| 2026-04-27 12:30 | 42.98747 | -81.89219 | 10142 ft | 166 kts | 68° |
| 2026-04-27 12:30 | 42.99103 | -81.87731 | 9944 ft | 164 kts | 69° |
| 2026-04-27 12:30 | 42.99457 | -81.86249 | 9730 ft | 164 kts | 71° |
| 2026-04-27 12:31 | 42.99806 | -81.84787 | 9527 ft | 159 kts | 69° |
| 2026-04-27 12:31 | 43.00146 | -81.83367 | 9317 ft | 156 kts | 70° |
| 2026-04-27 12:31 | 43.00481 | -81.81971 | 9111 ft | 154 kts | 71° |
| 2026-04-27 12:31 | 43.00809 | -81.80599 | 8906 ft | 151 kts | 71° |
| 2026-04-27 12:32 | 43.01132 | -81.79245 | 8713 ft | 149 kts | 72° |
| 2026-04-27 12:32 | 43.01453 | -81.77905 | 8512 ft | 148 kts | 72° |
| 2026-04-27 12:32 | 43.01770 | -81.76576 | 8313 ft | 147 kts | 72° |
| 2026-04-27 12:32 | 43.02084 | -81.75257 | 8115 ft | 146 kts | 73° |
| 2026-04-27 12:33 | 43.02397 | -81.73944 | 7917 ft | 145 kts | 73° |
| 2026-04-27 12:33 | 43.02708 | -81.72638 | 7724 ft | 144 kts | 75° |
| 2026-04-27 12:33 | 43.03017 | -81.71336 | 7525 ft | 144 kts | 75° |
| 2026-04-27 12:33 | 43.03325 | -81.70039 | 7323 ft | 144 kts | 75° |
| 2026-04-27 12:34 | 43.03636 | -81.68734 | 7115 ft | 144 kts | 75° |
| 2026-04-27 12:34 | 43.03947 | -81.67430 | 6901 ft | 144 kts | 77° |
| 2026-04-27 12:34 | 43.04255 | -81.66130 | 6690 ft | 144 kts | 75° |
| 2026-04-27 12:34 | 43.04562 | -81.64832 | 6463 ft | 143 kts | 76° |
| 2026-04-27 12:35 | 43.04867 | -81.63546 | 6278 ft | 141 kts | 76° |
| 2026-04-27 12:35 | 43.05166 | -81.62290 | 6113 ft | 137 kts | 78° |
| 2026-04-27 12:35 | 43.05459 | -81.61053 | 5956 ft | 136 kts | 77° |
| 2026-04-27 12:35 | 43.05746 | -81.59837 | 5782 ft | 133 kts | 77° |
| 2026-04-27 12:36 | 43.06029 | -81.58640 | 5612 ft | 132 kts | 77° |
| 2026-04-27 12:36 | 43.06310 | -81.57455 | 5441 ft | 130 kts | 78° |
| 2026-04-27 12:36 | 43.06587 | -81.56280 | 5268 ft | 129 kts | 78° |
| 2026-04-27 12:36 | 43.06863 | -81.55112 | 5106 ft | 129 kts | 78° |
| 2026-04-27 12:37 | 43.07138 | -81.53945 | 4939 ft | 129 kts | 78° |
| 2026-04-27 12:37 | 43.07413 | -81.52782 | 4768 ft | 128 kts | 78° |
| 2026-04-27 12:37 | 43.07686 | -81.51628 | 4594 ft | 127 kts | 78° |
| 2026-04-27 12:37 | 43.07956 | -81.50480 | 4421 ft | 127 kts | 79° |
| 2026-04-27 12:38 | 43.08227 | -81.49334 | 4254 ft | 129 kts | 78° |
| 2026-04-27 12:38 | 43.08511 | -81.48119 | 4114 ft | 138 kts | 78° |
| 2026-04-27 12:38 | 43.08812 | -81.46844 | 3977 ft | 142 kts | 79° |
| 2026-04-27 12:38 | 43.09116 | -81.45558 | 3859 ft | 141 kts | 79° |
| 2026-04-27 12:39 | 43.09413 | -81.44295 | 3718 ft | 138 kts | 79° |
| 2026-04-27 12:39 | 43.09705 | -81.43053 | 3574 ft | 137 kts | 80° |
| 2026-04-27 12:39 | 43.09994 | -81.41821 | 3439 ft | 135 kts | 80° |
| 2026-04-27 12:39 | 43.10281 | -81.40595 | 3297 ft | 135 kts | 80° |
| 2026-04-27 12:40 | 43.10567 | -81.39371 | 3173 ft | 135 kts | 81° |
| 2026-04-27 12:40 | 43.10853 | -81.38143 | 3036 ft | 136 kts | 80° |
| 2026-04-27 12:40 | 43.11321 | -81.37006 | 2887 ft | 146 kts | 49° |
| 2026-04-27 12:40 | 43.12128 | -81.36200 | 2885 ft | 143 kts | 38° |
| 2026-04-27 12:41 | 43.12945 | -81.35490 | 2886 ft | 135 kts | 47° |
| 2026-04-27 12:41 | 43.13665 | -81.34686 | 2885 ft | 133 kts | 49° |
| 2026-04-27 12:41 | 43.14316 | -81.33817 | 2887 ft | 129 kts | 56° |
| 2026-04-27 12:41 | 43.14865 | -81.32871 | 2888 ft | 125 kts | 64° |
| 2026-04-27 12:42 | 43.15282 | -81.31861 | 2892 ft | 119 kts | 78° |
| 2026-04-27 12:42 | 43.15504 | -81.30788 | 2888 ft | 116 kts | 90° |
| 2026-04-27 12:42 | 43.15275 | -81.29824 | 2891 ft | 108 kts | 123° |
| 2026-04-27 12:42 | 43.14830 | -81.29023 | 2891 ft | 106 kts | 136° |
| 2026-04-27 12:43 | 43.14319 | -81.28294 | 2887 ft | 106 kts | 138° |
| 2026-04-27 12:43 | 43.13817 | -81.27639 | 2888 ft | 95 kts | 138° |
| 2026-04-27 12:43 | 43.13333 | -81.27021 | 2889 ft | 95 kts | 140° |
| 2026-04-27 12:43 | 43.12844 | -81.26409 | 2888 ft | 96 kts | 140° |
| 2026-04-27 12:44 | 43.12350 | -81.25800 | 2889 ft | 94 kts | 141° |
| 2026-04-27 12:44 | 43.11872 | -81.25223 | 2904 ft | 86 kts | 141° |
| 2026-04-27 12:44 | 43.11432 | -81.24689 | 2849 ft | 84 kts | 141° |
| 2026-04-27 12:44 | 43.10990 | -81.24152 | 2744 ft | 85 kts | 142° |
| 2026-04-27 12:45 | 43.10544 | -81.23619 | 2629 ft | 84 kts | 141° |
| 2026-04-27 12:45 | 43.10117 | -81.23101 | 2516 ft | 80 kts | 140° |
| 2026-04-27 12:45 | 43.09706 | -81.22605 | 2411 ft | 78 kts | 142° |
| 2026-04-27 12:45 | 43.09286 | -81.22102 | 2299 ft | 82 kts | 142° |
| 2026-04-27 12:46 | 43.08862 | -81.21584 | 2190 ft | 82 kts | 142° |
| 2026-04-27 12:46 | 43.08435 | -81.21069 | 2081 ft | 81 kts | 144° |
| 2026-04-27 12:46 | 43.08016 | -81.20568 | 1970 ft | 78 kts | 142° |
| 2026-04-27 12:46 | 43.07609 | -81.20075 | 1856 ft | 79 kts | 141° |
| 2026-04-27 12:47 | 43.07199 | -81.19578 | 1737 ft | 79 kts | 140° |
| 2026-04-27 12:47 | 43.06784 | -81.19081 | 1625 ft | 80 kts | 138° |
| 2026-04-27 12:47 | 43.06362 | -81.18571 | 1509 ft | 82 kts | 137° |
| 2026-04-27 12:47 | 43.05993 | -81.18128 | 1415 ft | 81 kts | 139° |
| 2026-04-27 12:48 | 43.05639 | -81.17699 | 1322 ft | 80 kts | 137° |
| 2026-04-27 12:48 | 43.05209 | -81.17206 | 1202 ft | 81 kts | 135° |
| 2026-04-27 12:48 | 43.04792 | -81.16692 | 1131 ft | 83 kts | 135° |
| 2026-04-27 12:49 | 43.04350 | -81.16165 | 1002 ft | 86 kts | 135° |
| 2026-04-27 12:49 | 43.03920 | -81.15646 | 914 ft | 78 kts | 135° |
| 2026-04-27 12:49 | 43.03565 | -81.15212 | 910 ft | 59 kts | 133° |
| 2026-04-27 12:49 | 43.03278 | -81.14866 | 904 ft | 52 kts | 137° |
| 2026-04-27 12:50 | 43.03040 | -81.14582 | 903 ft | 32 kts | 137° |
| 2026-04-27 12:50 | 43.02922 | -81.14576 | 901 ft | 26 kts | 272° |
| 2026-04-27 12:50 | 43.02890 | -81.14692 | 901 ft | 0 kts | 253° |
| 2026-04-27 12:51 | 43.02862 | -81.14728 | 902 ft | 15 kts | 222° |
| 2026-04-27 12:51 | 43.02837 | -81.14786 | 903 ft | 0 kts | 252° |